<?xml version="1.0" encoding="UTF-8" standalone="no" ?>
<gpx xmlns="http://www.topografix.com/GPX/1/1" xmlns:xsi="http://www.w3.org/2001/XMLSchema-instance" xsi:schemaLocation="http://www.topografix.com/GPX/1/1 http://www.topografix.com/GPX/1/1/gpx.xsd" version="1.1" creator="VisuGPX - https://www.visugpx.com">
  <metadata>
    <name>De Poissy à Conflans fin d'Oise (78)</name>
    <desc><![CDATA[Parcours de 18 km en ligne à partir de la gare de Poissy jusqu'à la gare de Conflans-Fin-d'Oise.]]></desc>
  </metadata>
  <wpt lat="48.93413" lon="2.04133">
    <ele>60.38</ele>
    <name><![CDATA[]]></name>
    <type><![CDATA[Point de départ]]></type>
  </wpt>
  <wpt lat="48.98903" lon="2.07427">
    <ele>48.33</ele>
    <name><![CDATA[]]></name>
    <desc><![CDATA[<p><br /><h3>Nom: Segment: 1</h3><br />Heure de départ: 09:13 17 oct. 2021<br/>Heure d'arrivée: 15:33 17 oct. 2021<br/>Distance: 17,2km (06:20)<br/>Temps déplacement: 03:50<br/>Vitesse moyenne: 2,72 km/h<br/>Vitesse moyenne mouv.: 4,47 km/h<br/>Vitesse Max.: 9,83 km/h<br/>Altitude minimale: 21 m<br/>Altitude maximale: 171 m<br/>Vitesse de montée: 593,2 m/h<br/>Vitesse de descente: 344,4 m/h<br/>Gain d'altitude: 294 m<br/>Perte d'altitude: 296 m<br/>Temps de montée: 00:29<br/>Temps de descente: 00:51<br/></p>]]></desc>
    <type><![CDATA[Point d'arrivée]]></type>
  </wpt>
  <trk>
    <name><![CDATA[2021-10-17 09:13:15]]></name>
    <desc><![CDATA[<p>Heure de départ: 09:13 17 oct. 2021<br/>Heure d'arrivée: 15:33 17 oct. 2021<br/>Distance: 17,2 km (06:20)<br/>Temps déplacement: 03:50<br/>Vitesse moyenne: 2,72 km/h<br/>Vitesse moyenne mouv.: 4,47 km/h<br/>Vitesse Max.: 9,83 km/h<br/>Altitude minimale: 21 m<br/>Altitude maximale: 171 m<br/>Vitesse de montée: 593,2 m/h<br/>Vitesse de descente: 344,4 m/h<br/>Gain d'altitude: 294 m<br/>Perte d'altitude: 296 m<br/>Temps de montée: 00:29<br/>Temps de descente: 00:51<br/></p><hr align="center" width="480" style="height: 2px; width: 517px"/>]]></desc>
    <trkseg>
      <trkpt lat="48.93413" lon="2.04133">
        <ele>60.38</ele>
        <time>2021-10-17T07:13:16.292Z</time>
      </trkpt>
      <trkpt lat="48.93408" lon="2.04105">
        <ele>38.17</ele>
        <time>2021-10-17T07:13:58.999Z</time>
      </trkpt>
      <trkpt lat="48.93402" lon="2.04076">
        <ele>37.23</ele>
        <time>2021-10-17T07:14:14.999Z</time>
      </trkpt>
      <trkpt lat="48.93395" lon="2.04049">
        <ele>34.45</ele>
        <time>2021-10-17T07:14:54.999Z</time>
      </trkpt>
      <trkpt lat="48.93385" lon="2.04025">
        <ele>33.78</ele>
        <time>2021-10-17T07:15:07.999Z</time>
      </trkpt>
      <trkpt lat="48.93373" lon="2.04001">
        <ele>33.92</ele>
        <time>2021-10-17T07:15:19.999Z</time>
      </trkpt>
      <trkpt lat="48.93371" lon="2.03973">
        <ele>36.45</ele>
        <time>2021-10-17T07:15:36.999Z</time>
      </trkpt>
      <trkpt lat="48.93369" lon="2.03946">
        <ele>37.63</ele>
        <time>2021-10-17T07:15:53.999Z</time>
      </trkpt>
      <trkpt lat="48.93366" lon="2.03918">
        <ele>38.88</ele>
        <time>2021-10-17T07:16:06.999Z</time>
      </trkpt>
      <trkpt lat="48.93365" lon="2.03889">
        <ele>40.11</ele>
        <time>2021-10-17T07:16:18.000Z</time>
      </trkpt>
      <trkpt lat="48.93358" lon="2.03863">
        <ele>39.73</ele>
        <time>2021-10-17T07:16:39.000Z</time>
      </trkpt>
      <trkpt lat="48.93376" lon="2.03864">
        <ele>37.4</ele>
        <time>2021-10-17T07:17:07.000Z</time>
      </trkpt>
      <trkpt lat="48.93393" lon="2.03851">
        <ele>33.83</ele>
        <time>2021-10-17T07:17:36.000Z</time>
      </trkpt>
      <trkpt lat="48.93412" lon="2.03844">
        <ele>28.44</ele>
        <time>2021-10-17T07:19:25.000Z</time>
      </trkpt>
      <trkpt lat="48.93428" lon="2.03859">
        <ele>26.86</ele>
        <time>2021-10-17T07:19:53.000Z</time>
      </trkpt>
      <trkpt lat="48.93444" lon="2.03871">
        <ele>25.5</ele>
        <time>2021-10-17T07:20:16.000Z</time>
      </trkpt>
      <trkpt lat="48.93461" lon="2.03884">
        <ele>24.28</ele>
        <time>2021-10-17T07:20:33.000Z</time>
      </trkpt>
      <trkpt lat="48.93478" lon="2.03894">
        <ele>23.34</ele>
        <time>2021-10-17T07:20:53.000Z</time>
      </trkpt>
      <trkpt lat="48.93493" lon="2.03908">
        <ele>22.88</ele>
        <time>2021-10-17T07:21:09.000Z</time>
      </trkpt>
      <trkpt lat="48.93509" lon="2.03923">
        <ele>21.94</ele>
        <time>2021-10-17T07:21:33.000Z</time>
      </trkpt>
      <trkpt lat="48.93526" lon="2.03933">
        <ele>23.07</ele>
        <time>2021-10-17T07:21:48.000Z</time>
      </trkpt>
      <trkpt lat="48.93542" lon="2.03947">
        <ele>23.82</ele>
        <time>2021-10-17T07:22:45.000Z</time>
      </trkpt>
      <trkpt lat="48.93554" lon="2.0397">
        <ele>23.97</ele>
        <time>2021-10-17T07:23:21.000Z</time>
      </trkpt>
      <trkpt lat="48.93567" lon="2.03988">
        <ele>23.41</ele>
        <time>2021-10-17T07:23:41.000Z</time>
      </trkpt>
      <trkpt lat="48.93586" lon="2.03991">
        <ele>27.24</ele>
        <time>2021-10-17T07:24:15.000Z</time>
      </trkpt>
      <trkpt lat="48.93601" lon="2.03975">
        <ele>28.88</ele>
        <time>2021-10-17T07:24:32.000Z</time>
      </trkpt>
      <trkpt lat="48.93614" lon="2.03956">
        <ele>29.88</ele>
        <time>2021-10-17T07:24:50.000Z</time>
      </trkpt>
      <trkpt lat="48.93628" lon="2.03937">
        <ele>31.4</ele>
        <time>2021-10-17T07:25:07.000Z</time>
      </trkpt>
      <trkpt lat="48.93642" lon="2.03918">
        <ele>33.34</ele>
        <time>2021-10-17T07:25:24.000Z</time>
      </trkpt>
      <trkpt lat="48.93655" lon="2.03899">
        <ele>34.52</ele>
        <time>2021-10-17T07:25:41.000Z</time>
      </trkpt>
      <trkpt lat="48.93667" lon="2.03877">
        <ele>34.87</ele>
        <time>2021-10-17T07:25:59.000Z</time>
      </trkpt>
      <trkpt lat="48.93679" lon="2.03855">
        <ele>34.76</ele>
        <time>2021-10-17T07:26:12.000Z</time>
      </trkpt>
      <trkpt lat="48.93691" lon="2.03834">
        <ele>35.34</ele>
        <time>2021-10-17T07:26:29.000Z</time>
      </trkpt>
      <trkpt lat="48.93705" lon="2.03815">
        <ele>35.75</ele>
        <time>2021-10-17T07:26:45.000Z</time>
      </trkpt>
      <trkpt lat="48.93717" lon="2.03795">
        <ele>35.99</ele>
        <time>2021-10-17T07:27:04.000Z</time>
      </trkpt>
      <trkpt lat="48.93701" lon="2.03781">
        <ele>30.14</ele>
        <time>2021-10-17T07:28:45.999Z</time>
      </trkpt>
      <trkpt lat="48.93686" lon="2.03764">
        <ele>29.33</ele>
        <time>2021-10-17T07:29:06.999Z</time>
      </trkpt>
      <trkpt lat="48.93673" lon="2.03745">
        <ele>28.51</ele>
        <time>2021-10-17T07:29:22.999Z</time>
      </trkpt>
      <trkpt lat="48.93659" lon="2.03725">
        <ele>27.63</ele>
        <time>2021-10-17T07:29:39.999Z</time>
      </trkpt>
      <trkpt lat="48.93645" lon="2.03707">
        <ele>27.61</ele>
        <time>2021-10-17T07:29:54.999Z</time>
      </trkpt>
      <trkpt lat="48.93631" lon="2.0369">
        <ele>27.17</ele>
        <time>2021-10-17T07:30:15.999Z</time>
      </trkpt>
      <trkpt lat="48.93617" lon="2.03672">
        <ele>27.01</ele>
        <time>2021-10-17T07:30:49.999Z</time>
      </trkpt>
      <trkpt lat="48.93604" lon="2.03651">
        <ele>26.8</ele>
        <time>2021-10-17T07:31:01.999Z</time>
      </trkpt>
      <trkpt lat="48.93591" lon="2.03631">
        <ele>26.21</ele>
        <time>2021-10-17T07:31:16.999Z</time>
      </trkpt>
      <trkpt lat="48.93579" lon="2.0361">
        <ele>25.97</ele>
        <time>2021-10-17T07:31:33.999Z</time>
      </trkpt>
      <trkpt lat="48.93565" lon="2.03589">
        <ele>26.41</ele>
        <time>2021-10-17T07:31:53.999Z</time>
      </trkpt>
      <trkpt lat="48.93551" lon="2.03571">
        <ele>27.46</ele>
        <time>2021-10-17T07:32:11.999Z</time>
      </trkpt>
      <trkpt lat="48.93539" lon="2.03549">
        <ele>28.21</ele>
        <time>2021-10-17T07:32:27.999Z</time>
      </trkpt>
      <trkpt lat="48.93531" lon="2.03525">
        <ele>27.86</ele>
        <time>2021-10-17T07:32:51.999Z</time>
      </trkpt>
      <trkpt lat="48.9352" lon="2.03502">
        <ele>28.06</ele>
        <time>2021-10-17T07:33:16.999Z</time>
      </trkpt>
      <trkpt lat="48.9351" lon="2.03479">
        <ele>28.66</ele>
        <time>2021-10-17T07:33:29.999Z</time>
      </trkpt>
      <trkpt lat="48.93503" lon="2.03453">
        <ele>28.74</ele>
        <time>2021-10-17T07:33:49.999Z</time>
      </trkpt>
      <trkpt lat="48.93494" lon="2.03427">
        <ele>27.93</ele>
        <time>2021-10-17T07:34:04.999Z</time>
      </trkpt>
      <trkpt lat="48.93483" lon="2.03402">
        <ele>27.79</ele>
        <time>2021-10-17T07:34:22.999Z</time>
      </trkpt>
      <trkpt lat="48.9347" lon="2.03381">
        <ele>27.73</ele>
        <time>2021-10-17T07:34:39.999Z</time>
      </trkpt>
      <trkpt lat="48.93459" lon="2.03356">
        <ele>29.86</ele>
        <time>2021-10-17T07:34:59.999Z</time>
      </trkpt>
      <trkpt lat="48.93451" lon="2.03331">
        <ele>32.61</ele>
        <time>2021-10-17T07:35:15.999Z</time>
      </trkpt>
      <trkpt lat="48.93442" lon="2.03306">
        <ele>33.37</ele>
        <time>2021-10-17T07:35:32.999Z</time>
      </trkpt>
      <trkpt lat="48.93435" lon="2.03279">
        <ele>35.07</ele>
        <time>2021-10-17T07:35:50.999Z</time>
      </trkpt>
      <trkpt lat="48.93427" lon="2.03253">
        <ele>35.6</ele>
        <time>2021-10-17T07:36:05.999Z</time>
      </trkpt>
      <trkpt lat="48.93422" lon="2.03225">
        <ele>35.83</ele>
        <time>2021-10-17T07:36:19.999Z</time>
      </trkpt>
      <trkpt lat="48.93416" lon="2.03198">
        <ele>34.19</ele>
        <time>2021-10-17T07:36:40.999Z</time>
      </trkpt>
      <trkpt lat="48.9341" lon="2.03172">
        <ele>33.68</ele>
        <time>2021-10-17T07:36:55.999Z</time>
      </trkpt>
      <trkpt lat="48.93401" lon="2.03147">
        <ele>33.37</ele>
        <time>2021-10-17T07:37:11.999Z</time>
      </trkpt>
      <trkpt lat="48.93392" lon="2.03123">
        <ele>32.15</ele>
        <time>2021-10-17T07:37:25.999Z</time>
      </trkpt>
      <trkpt lat="48.93385" lon="2.03097">
        <ele>30.42</ele>
        <time>2021-10-17T07:37:42.999Z</time>
      </trkpt>
      <trkpt lat="48.93378" lon="2.03072">
        <ele>30.11</ele>
        <time>2021-10-17T07:37:54.999Z</time>
      </trkpt>
      <trkpt lat="48.9337" lon="2.03045">
        <ele>30.25</ele>
        <time>2021-10-17T07:38:13.999Z</time>
      </trkpt>
      <trkpt lat="48.93359" lon="2.03022">
        <ele>29.7</ele>
        <time>2021-10-17T07:38:29.999Z</time>
      </trkpt>
      <trkpt lat="48.93347" lon="2.03001">
        <ele>28.56</ele>
        <time>2021-10-17T07:38:43.999Z</time>
      </trkpt>
      <trkpt lat="48.93335" lon="2.02981">
        <ele>29.37</ele>
        <time>2021-10-17T07:39:00.999Z</time>
      </trkpt>
      <trkpt lat="48.93323" lon="2.02959">
        <ele>29.75</ele>
        <time>2021-10-17T07:39:16.999Z</time>
      </trkpt>
      <trkpt lat="48.93311" lon="2.02936">
        <ele>29.9</ele>
        <time>2021-10-17T07:39:32.999Z</time>
      </trkpt>
      <trkpt lat="48.93301" lon="2.02912">
        <ele>29.89</ele>
        <time>2021-10-17T07:39:49.999Z</time>
      </trkpt>
      <trkpt lat="48.93289" lon="2.0289">
        <ele>29.48</ele>
        <time>2021-10-17T07:40:08.999Z</time>
      </trkpt>
      <trkpt lat="48.93278" lon="2.02868">
        <ele>29.19</ele>
        <time>2021-10-17T07:40:28.999Z</time>
      </trkpt>
      <trkpt lat="48.93266" lon="2.02846">
        <ele>29.44</ele>
        <time>2021-10-17T07:40:48.000Z</time>
      </trkpt>
      <trkpt lat="48.93256" lon="2.02821">
        <ele>29.29</ele>
        <time>2021-10-17T07:41:10.000Z</time>
      </trkpt>
      <trkpt lat="48.93254" lon="2.02793">
        <ele>29.68</ele>
        <time>2021-10-17T07:41:28.000Z</time>
      </trkpt>
      <trkpt lat="48.93251" lon="2.02763">
        <ele>29.53</ele>
        <time>2021-10-17T07:41:46.000Z</time>
      </trkpt>
      <trkpt lat="48.93245" lon="2.02736">
        <ele>29.15</ele>
        <time>2021-10-17T07:42:03.000Z</time>
      </trkpt>
      <trkpt lat="48.93238" lon="2.0271">
        <ele>29.07</ele>
        <time>2021-10-17T07:42:21.000Z</time>
      </trkpt>
      <trkpt lat="48.9323" lon="2.02683">
        <ele>29.27</ele>
        <time>2021-10-17T07:42:36.000Z</time>
      </trkpt>
      <trkpt lat="48.93222" lon="2.02659">
        <ele>29.67</ele>
        <time>2021-10-17T07:42:49.000Z</time>
      </trkpt>
      <trkpt lat="48.93212" lon="2.02635">
        <ele>30.42</ele>
        <time>2021-10-17T07:43:11.000Z</time>
      </trkpt>
      <trkpt lat="48.93202" lon="2.02611">
        <ele>30.01</ele>
        <time>2021-10-17T07:43:28.000Z</time>
      </trkpt>
      <trkpt lat="48.93193" lon="2.02587">
        <ele>29.52</ele>
        <time>2021-10-17T07:43:43.000Z</time>
      </trkpt>
      <trkpt lat="48.93181" lon="2.02565">
        <ele>29.94</ele>
        <time>2021-10-17T07:44:01.000Z</time>
      </trkpt>
      <trkpt lat="48.93171" lon="2.02542">
        <ele>29.86</ele>
        <time>2021-10-17T07:44:18.000Z</time>
      </trkpt>
      <trkpt lat="48.93162" lon="2.02517">
        <ele>28.72</ele>
        <time>2021-10-17T07:44:34.000Z</time>
      </trkpt>
      <trkpt lat="48.93157" lon="2.02491">
        <ele>27.44</ele>
        <time>2021-10-17T07:44:50.000Z</time>
      </trkpt>
      <trkpt lat="48.93154" lon="2.02463">
        <ele>27.18</ele>
        <time>2021-10-17T07:45:06.000Z</time>
      </trkpt>
      <trkpt lat="48.93155" lon="2.02435">
        <ele>27.51</ele>
        <time>2021-10-17T07:45:22.000Z</time>
      </trkpt>
      <trkpt lat="48.93155" lon="2.02407">
        <ele>27.93</ele>
        <time>2021-10-17T07:45:38.000Z</time>
      </trkpt>
      <trkpt lat="48.93153" lon="2.02379">
        <ele>28.64</ele>
        <time>2021-10-17T07:45:56.000Z</time>
      </trkpt>
      <trkpt lat="48.93156" lon="2.0235">
        <ele>30.07</ele>
        <time>2021-10-17T07:46:28.000Z</time>
      </trkpt>
      <trkpt lat="48.93159" lon="2.02323">
        <ele>29.85</ele>
        <time>2021-10-17T07:47:10.000Z</time>
      </trkpt>
      <trkpt lat="48.93165" lon="2.02296">
        <ele>28.24</ele>
        <time>2021-10-17T07:52:38.000Z</time>
      </trkpt>
      <trkpt lat="48.93171" lon="2.0227">
        <ele>28.64</ele>
        <time>2021-10-17T07:52:59.999Z</time>
      </trkpt>
      <trkpt lat="48.93176" lon="2.02243">
        <ele>30.02</ele>
        <time>2021-10-17T07:53:21.999Z</time>
      </trkpt>
      <trkpt lat="48.9318" lon="2.02216">
        <ele>30.13</ele>
        <time>2021-10-17T07:53:41.999Z</time>
      </trkpt>
      <trkpt lat="48.93185" lon="2.0219">
        <ele>29.22</ele>
        <time>2021-10-17T07:53:56.999Z</time>
      </trkpt>
      <trkpt lat="48.93188" lon="2.02162">
        <ele>27.94</ele>
        <time>2021-10-17T07:54:12.999Z</time>
      </trkpt>
      <trkpt lat="48.93193" lon="2.02134">
        <ele>27.48</ele>
        <time>2021-10-17T07:54:30.999Z</time>
      </trkpt>
      <trkpt lat="48.93199" lon="2.02106">
        <ele>27.35</ele>
        <time>2021-10-17T07:54:45.999Z</time>
      </trkpt>
      <trkpt lat="48.93206" lon="2.02078">
        <ele>26.13</ele>
        <time>2021-10-17T07:55:03.999Z</time>
      </trkpt>
      <trkpt lat="48.9321" lon="2.02051">
        <ele>24.74</ele>
        <time>2021-10-17T07:55:20.999Z</time>
      </trkpt>
      <trkpt lat="48.93218" lon="2.02022">
        <ele>23.14</ele>
        <time>2021-10-17T07:55:35.999Z</time>
      </trkpt>
      <trkpt lat="48.93224" lon="2.01995">
        <ele>22.48</ele>
        <time>2021-10-17T07:55:51.999Z</time>
      </trkpt>
      <trkpt lat="48.93218" lon="2.01968">
        <ele>22.78</ele>
        <time>2021-10-17T07:56:02.999Z</time>
      </trkpt>
      <trkpt lat="48.93216" lon="2.01939">
        <ele>24.47</ele>
        <time>2021-10-17T07:56:18.999Z</time>
      </trkpt>
      <trkpt lat="48.93225" lon="2.01915">
        <ele>26.64</ele>
        <time>2021-10-17T07:56:53.999Z</time>
      </trkpt>
      <trkpt lat="48.93235" lon="2.01891">
        <ele>27.81</ele>
        <time>2021-10-17T07:57:07.999Z</time>
      </trkpt>
      <trkpt lat="48.93241" lon="2.01863">
        <ele>28.94</ele>
        <time>2021-10-17T07:57:27.999Z</time>
      </trkpt>
      <trkpt lat="48.93245" lon="2.01836">
        <ele>30.66</ele>
        <time>2021-10-17T07:57:49.999Z</time>
      </trkpt>
      <trkpt lat="48.93249" lon="2.01807">
        <ele>31.17</ele>
        <time>2021-10-17T07:58:09.999Z</time>
      </trkpt>
      <trkpt lat="48.93255" lon="2.0178">
        <ele>29.76</ele>
        <time>2021-10-17T07:58:28.999Z</time>
      </trkpt>
      <trkpt lat="48.93248" lon="2.01753">
        <ele>26.48</ele>
        <time>2021-10-17T07:58:55.999Z</time>
      </trkpt>
      <trkpt lat="48.93232" lon="2.01738">
        <ele>24.58</ele>
        <time>2021-10-17T07:59:31.999Z</time>
      </trkpt>
      <trkpt lat="48.93218" lon="2.01715">
        <ele>24.39</ele>
        <time>2021-10-17T07:59:59.999Z</time>
      </trkpt>
      <trkpt lat="48.93209" lon="2.0169">
        <ele>23.57</ele>
        <time>2021-10-17T08:00:28.999Z</time>
      </trkpt>
      <trkpt lat="48.93191" lon="2.01683">
        <ele>22.74</ele>
        <time>2021-10-17T08:00:46.999Z</time>
      </trkpt>
      <trkpt lat="48.93195" lon="2.01654">
        <ele>21.93</ele>
        <time>2021-10-17T08:01:02.999Z</time>
      </trkpt>
      <trkpt lat="48.93197" lon="2.01625">
        <ele>23.53</ele>
        <time>2021-10-17T08:01:15.999Z</time>
      </trkpt>
      <trkpt lat="48.93202" lon="2.01598">
        <ele>26.9</ele>
        <time>2021-10-17T08:01:39.999Z</time>
      </trkpt>
      <trkpt lat="48.93205" lon="2.01569">
        <ele>27.57</ele>
        <time>2021-10-17T08:01:57.999Z</time>
      </trkpt>
      <trkpt lat="48.93209" lon="2.01541">
        <ele>27.52</ele>
        <time>2021-10-17T08:02:19.999Z</time>
      </trkpt>
      <trkpt lat="48.93213" lon="2.01514">
        <ele>27.36</ele>
        <time>2021-10-17T08:02:34.999Z</time>
      </trkpt>
      <trkpt lat="48.93226" lon="2.01493">
        <ele>27.86</ele>
        <time>2021-10-17T08:02:51.999Z</time>
      </trkpt>
      <trkpt lat="48.93227" lon="2.01463">
        <ele>26.28</ele>
        <time>2021-10-17T08:03:09.999Z</time>
      </trkpt>
      <trkpt lat="48.93237" lon="2.01435">
        <ele>25.42</ele>
        <time>2021-10-17T08:03:22.999Z</time>
      </trkpt>
      <trkpt lat="48.93247" lon="2.01411">
        <ele>26.29</ele>
        <time>2021-10-17T08:03:44.999Z</time>
      </trkpt>
      <trkpt lat="48.93263" lon="2.01389">
        <ele>27.49</ele>
        <time>2021-10-17T08:04:04.999Z</time>
      </trkpt>
      <trkpt lat="48.93274" lon="2.01366">
        <ele>25.82</ele>
        <time>2021-10-17T08:04:31.999Z</time>
      </trkpt>
      <trkpt lat="48.9329" lon="2.01352">
        <ele>24.02</ele>
        <time>2021-10-17T08:04:39.999Z</time>
      </trkpt>
      <trkpt lat="48.93309" lon="2.01343">
        <ele>22.22</ele>
        <time>2021-10-17T08:04:59.999Z</time>
      </trkpt>
      <trkpt lat="48.93327" lon="2.01337">
        <ele>22.67</ele>
        <time>2021-10-17T08:05:06.999Z</time>
      </trkpt>
      <trkpt lat="48.93344" lon="2.01329">
        <ele>25.09</ele>
        <time>2021-10-17T08:05:19.999Z</time>
      </trkpt>
      <trkpt lat="48.93358" lon="2.01309">
        <ele>27.62</ele>
        <time>2021-10-17T08:05:37.000Z</time>
      </trkpt>
      <trkpt lat="48.93365" lon="2.01282">
        <ele>29.29</ele>
        <time>2021-10-17T08:05:57.000Z</time>
      </trkpt>
      <trkpt lat="48.93365" lon="2.01254">
        <ele>29.01</ele>
        <time>2021-10-17T08:06:15.000Z</time>
      </trkpt>
      <trkpt lat="48.93363" lon="2.01226">
        <ele>29.23</ele>
        <time>2021-10-17T08:06:29.000Z</time>
      </trkpt>
      <trkpt lat="48.93375" lon="2.01204">
        <ele>29.61</ele>
        <time>2021-10-17T08:06:44.000Z</time>
      </trkpt>
      <trkpt lat="48.93389" lon="2.01185">
        <ele>30.1</ele>
        <time>2021-10-17T08:07:05.000Z</time>
      </trkpt>
      <trkpt lat="48.93403" lon="2.01164">
        <ele>30.87</ele>
        <time>2021-10-17T08:07:21.000Z</time>
      </trkpt>
      <trkpt lat="48.93417" lon="2.01144">
        <ele>31.27</ele>
        <time>2021-10-17T08:07:37.000Z</time>
      </trkpt>
      <trkpt lat="48.93428" lon="2.01122">
        <ele>31.26</ele>
        <time>2021-10-17T08:07:51.000Z</time>
      </trkpt>
      <trkpt lat="48.93435" lon="2.01095">
        <ele>32.29</ele>
        <time>2021-10-17T08:08:03.000Z</time>
      </trkpt>
      <trkpt lat="48.93445" lon="2.01071">
        <ele>34.49</ele>
        <time>2021-10-17T08:08:22.000Z</time>
      </trkpt>
      <trkpt lat="48.93453" lon="2.01046">
        <ele>34.63</ele>
        <time>2021-10-17T08:08:39.000Z</time>
      </trkpt>
      <trkpt lat="48.93463" lon="2.01022">
        <ele>34.79</ele>
        <time>2021-10-17T08:08:53.000Z</time>
      </trkpt>
      <trkpt lat="48.93477" lon="2.01003">
        <ele>34.4</ele>
        <time>2021-10-17T08:09:18.000Z</time>
      </trkpt>
      <trkpt lat="48.93485" lon="2.00979">
        <ele>32.87</ele>
        <time>2021-10-17T08:09:33.000Z</time>
      </trkpt>
      <trkpt lat="48.93493" lon="2.00953">
        <ele>29.82</ele>
        <time>2021-10-17T08:09:52.000Z</time>
      </trkpt>
      <trkpt lat="48.93507" lon="2.00935">
        <ele>28.43</ele>
        <time>2021-10-17T08:10:03.000Z</time>
      </trkpt>
      <trkpt lat="48.93522" lon="2.00919">
        <ele>27.58</ele>
        <time>2021-10-17T08:10:20.000Z</time>
      </trkpt>
      <trkpt lat="48.93537" lon="2.00901">
        <ele>27.36</ele>
        <time>2021-10-17T08:10:34.000Z</time>
      </trkpt>
      <trkpt lat="48.93551" lon="2.00882">
        <ele>26.02</ele>
        <time>2021-10-17T08:10:55.000Z</time>
      </trkpt>
      <trkpt lat="48.93565" lon="2.00866">
        <ele>25.13</ele>
        <time>2021-10-17T08:11:05.000Z</time>
      </trkpt>
      <trkpt lat="48.93581" lon="2.00851">
        <ele>24.6</ele>
        <time>2021-10-17T08:11:24.000Z</time>
      </trkpt>
      <trkpt lat="48.93597" lon="2.00834">
        <ele>23.52</ele>
        <time>2021-10-17T08:11:40.000Z</time>
      </trkpt>
      <trkpt lat="48.93612" lon="2.00819">
        <ele>22.04</ele>
        <time>2021-10-17T08:11:54.000Z</time>
      </trkpt>
      <trkpt lat="48.93628" lon="2.00805">
        <ele>20.7</ele>
        <time>2021-10-17T08:12:15.000Z</time>
      </trkpt>
      <trkpt lat="48.93645" lon="2.00793">
        <ele>20.67</ele>
        <time>2021-10-17T08:12:26.000Z</time>
      </trkpt>
      <trkpt lat="48.93662" lon="2.00783">
        <ele>21.29</ele>
        <time>2021-10-17T08:12:38.000Z</time>
      </trkpt>
      <trkpt lat="48.93678" lon="2.0077">
        <ele>23.38</ele>
        <time>2021-10-17T08:13:00.000Z</time>
      </trkpt>
      <trkpt lat="48.93691" lon="2.00752">
        <ele>23.97</ele>
        <time>2021-10-17T08:13:16.000Z</time>
      </trkpt>
      <trkpt lat="48.93709" lon="2.00738">
        <ele>23.68</ele>
        <time>2021-10-17T08:13:29.000Z</time>
      </trkpt>
      <trkpt lat="48.93726" lon="2.00728">
        <ele>24.92</ele>
        <time>2021-10-17T08:13:42.000Z</time>
      </trkpt>
      <trkpt lat="48.93744" lon="2.00719">
        <ele>26.7</ele>
        <time>2021-10-17T08:13:58.000Z</time>
      </trkpt>
      <trkpt lat="48.93762" lon="2.00711">
        <ele>27.61</ele>
        <time>2021-10-17T08:14:17.000Z</time>
      </trkpt>
      <trkpt lat="48.93776" lon="2.00731">
        <ele>26.02</ele>
        <time>2021-10-17T08:14:38.000Z</time>
      </trkpt>
      <trkpt lat="48.93787" lon="2.00755">
        <ele>24.88</ele>
        <time>2021-10-17T08:14:56.000Z</time>
      </trkpt>
      <trkpt lat="48.93796" lon="2.00779">
        <ele>23.72</ele>
        <time>2021-10-17T08:15:13.000Z</time>
      </trkpt>
      <trkpt lat="48.9381" lon="2.00797">
        <ele>22</ele>
        <time>2021-10-17T08:15:31.000Z</time>
      </trkpt>
      <trkpt lat="48.9382" lon="2.00821">
        <ele>16.95</ele>
        <time>2021-10-17T08:16:06.000Z</time>
      </trkpt>
      <trkpt lat="48.93823" lon="2.00849">
        <ele>23.58</ele>
        <time>2021-10-17T08:19:54.999Z</time>
      </trkpt>
      <trkpt lat="48.93823" lon="2.00877">
        <ele>24</ele>
        <time>2021-10-17T08:20:22.999Z</time>
      </trkpt>
      <trkpt lat="48.93825" lon="2.00905">
        <ele>24.25</ele>
        <time>2021-10-17T08:20:38.999Z</time>
      </trkpt>
      <trkpt lat="48.93817" lon="2.00929">
        <ele>24.79</ele>
        <time>2021-10-17T08:21:01.999Z</time>
      </trkpt>
      <trkpt lat="48.93805" lon="2.00951">
        <ele>24.75</ele>
        <time>2021-10-17T08:21:18.999Z</time>
      </trkpt>
      <trkpt lat="48.93796" lon="2.00976">
        <ele>24.4</ele>
        <time>2021-10-17T08:21:36.999Z</time>
      </trkpt>
      <trkpt lat="48.93789" lon="2.01002">
        <ele>25.35</ele>
        <time>2021-10-17T08:21:55.999Z</time>
      </trkpt>
      <trkpt lat="48.93789" lon="2.01031">
        <ele>25.92</ele>
        <time>2021-10-17T08:22:18.999Z</time>
      </trkpt>
      <trkpt lat="48.9379" lon="2.01061">
        <ele>25.32</ele>
        <time>2021-10-17T08:22:39.999Z</time>
      </trkpt>
      <trkpt lat="48.93796" lon="2.01087">
        <ele>24.63</ele>
        <time>2021-10-17T08:22:57.999Z</time>
      </trkpt>
      <trkpt lat="48.93804" lon="2.01112">
        <ele>23.97</ele>
        <time>2021-10-17T08:23:14.999Z</time>
      </trkpt>
      <trkpt lat="48.93811" lon="2.01137">
        <ele>23.35</ele>
        <time>2021-10-17T08:23:28.999Z</time>
      </trkpt>
      <trkpt lat="48.93817" lon="2.01165">
        <ele>22.85</ele>
        <time>2021-10-17T08:23:48.999Z</time>
      </trkpt>
      <trkpt lat="48.93825" lon="2.0119">
        <ele>21.57</ele>
        <time>2021-10-17T08:24:02.999Z</time>
      </trkpt>
      <trkpt lat="48.93836" lon="2.01211">
        <ele>21.41</ele>
        <time>2021-10-17T08:24:13.999Z</time>
      </trkpt>
      <trkpt lat="48.93845" lon="2.01236">
        <ele>23.77</ele>
        <time>2021-10-17T08:24:27.999Z</time>
      </trkpt>
      <trkpt lat="48.9385" lon="2.01263">
        <ele>26.78</ele>
        <time>2021-10-17T08:24:42.999Z</time>
      </trkpt>
      <trkpt lat="48.93849" lon="2.01291">
        <ele>30.24</ele>
        <time>2021-10-17T08:24:59.999Z</time>
      </trkpt>
      <trkpt lat="48.93835" lon="2.0131">
        <ele>32.62</ele>
        <time>2021-10-17T08:25:17.999Z</time>
      </trkpt>
      <trkpt lat="48.93821" lon="2.01326">
        <ele>31.43</ele>
        <time>2021-10-17T08:25:35.999Z</time>
      </trkpt>
      <trkpt lat="48.93806" lon="2.01343">
        <ele>29.57</ele>
        <time>2021-10-17T08:25:47.999Z</time>
      </trkpt>
      <trkpt lat="48.93792" lon="2.01361">
        <ele>26.59</ele>
        <time>2021-10-17T08:26:04.999Z</time>
      </trkpt>
      <trkpt lat="48.93778" lon="2.01379">
        <ele>22.95</ele>
        <time>2021-10-17T08:26:21.999Z</time>
      </trkpt>
      <trkpt lat="48.93761" lon="2.01393">
        <ele>19.64</ele>
        <time>2021-10-17T08:26:38.999Z</time>
      </trkpt>
      <trkpt lat="48.93743" lon="2.01406">
        <ele>17.31</ele>
        <time>2021-10-17T08:26:51.999Z</time>
      </trkpt>
      <trkpt lat="48.93726" lon="2.01413">
        <ele>18.93</ele>
        <time>2021-10-17T08:27:13.999Z</time>
      </trkpt>
      <trkpt lat="48.93726" lon="2.01441">
        <ele>25.84</ele>
        <time>2021-10-17T08:28:34.999Z</time>
      </trkpt>
      <trkpt lat="48.93726" lon="2.0147">
        <ele>27.22</ele>
        <time>2021-10-17T08:28:48.999Z</time>
      </trkpt>
      <trkpt lat="48.93725" lon="2.01499">
        <ele>29.33</ele>
        <time>2021-10-17T08:29:06.999Z</time>
      </trkpt>
      <trkpt lat="48.93731" lon="2.01525">
        <ele>30.29</ele>
        <time>2021-10-17T08:29:22.999Z</time>
      </trkpt>
      <trkpt lat="48.93736" lon="2.01551">
        <ele>31.44</ele>
        <time>2021-10-17T08:29:40.999Z</time>
      </trkpt>
      <trkpt lat="48.9374" lon="2.01579">
        <ele>32.35</ele>
        <time>2021-10-17T08:30:00.000Z</time>
      </trkpt>
      <trkpt lat="48.93726" lon="2.01597">
        <ele>33.24</ele>
        <time>2021-10-17T08:30:18.000Z</time>
      </trkpt>
      <trkpt lat="48.93727" lon="2.01626">
        <ele>33.3</ele>
        <time>2021-10-17T08:30:38.000Z</time>
      </trkpt>
      <trkpt lat="48.93731" lon="2.01654">
        <ele>32.66</ele>
        <time>2021-10-17T08:30:55.000Z</time>
      </trkpt>
      <trkpt lat="48.93737" lon="2.0168">
        <ele>31.8</ele>
        <time>2021-10-17T08:31:10.000Z</time>
      </trkpt>
      <trkpt lat="48.93739" lon="2.01707">
        <ele>31.48</ele>
        <time>2021-10-17T08:31:24.000Z</time>
      </trkpt>
      <trkpt lat="48.93736" lon="2.01735">
        <ele>30.68</ele>
        <time>2021-10-17T08:31:44.000Z</time>
      </trkpt>
      <trkpt lat="48.93736" lon="2.01763">
        <ele>31.64</ele>
        <time>2021-10-17T08:32:39.000Z</time>
      </trkpt>
      <trkpt lat="48.93743" lon="2.01789">
        <ele>32.53</ele>
        <time>2021-10-17T08:32:55.000Z</time>
      </trkpt>
      <trkpt lat="48.93747" lon="2.01816">
        <ele>34.2</ele>
        <time>2021-10-17T08:33:17.000Z</time>
      </trkpt>
      <trkpt lat="48.93756" lon="2.01841">
        <ele>34.31</ele>
        <time>2021-10-17T08:33:36.000Z</time>
      </trkpt>
      <trkpt lat="48.93762" lon="2.01867">
        <ele>32.94</ele>
        <time>2021-10-17T08:33:54.000Z</time>
      </trkpt>
      <trkpt lat="48.93771" lon="2.01892">
        <ele>31.26</ele>
        <time>2021-10-17T08:34:30.000Z</time>
      </trkpt>
      <trkpt lat="48.9378" lon="2.01916">
        <ele>32.24</ele>
        <time>2021-10-17T08:34:45.000Z</time>
      </trkpt>
      <trkpt lat="48.9379" lon="2.0194">
        <ele>32.39</ele>
        <time>2021-10-17T08:35:00.000Z</time>
      </trkpt>
      <trkpt lat="48.938" lon="2.01963">
        <ele>32.65</ele>
        <time>2021-10-17T08:35:16.000Z</time>
      </trkpt>
      <trkpt lat="48.9381" lon="2.01986">
        <ele>32.68</ele>
        <time>2021-10-17T08:35:29.000Z</time>
      </trkpt>
      <trkpt lat="48.93822" lon="2.02009">
        <ele>33.1</ele>
        <time>2021-10-17T08:35:41.000Z</time>
      </trkpt>
      <trkpt lat="48.93839" lon="2.02017">
        <ele>34.73</ele>
        <time>2021-10-17T08:36:55.000Z</time>
      </trkpt>
      <trkpt lat="48.93843" lon="2.02044">
        <ele>35.76</ele>
        <time>2021-10-17T08:37:15.000Z</time>
      </trkpt>
      <trkpt lat="48.93859" lon="2.0206">
        <ele>35.73</ele>
        <time>2021-10-17T08:37:31.000Z</time>
      </trkpt>
      <trkpt lat="48.93874" lon="2.02079">
        <ele>35.67</ele>
        <time>2021-10-17T08:37:49.000Z</time>
      </trkpt>
      <trkpt lat="48.93889" lon="2.02096">
        <ele>35.8</ele>
        <time>2021-10-17T08:38:03.000Z</time>
      </trkpt>
      <trkpt lat="48.93903" lon="2.02114">
        <ele>36.05</ele>
        <time>2021-10-17T08:38:23.000Z</time>
      </trkpt>
      <trkpt lat="48.93921" lon="2.02117">
        <ele>35.13</ele>
        <time>2021-10-17T08:38:44.000Z</time>
      </trkpt>
      <trkpt lat="48.93935" lon="2.02134">
        <ele>33.46</ele>
        <time>2021-10-17T08:39:17.000Z</time>
      </trkpt>
      <trkpt lat="48.9395" lon="2.02149">
        <ele>32.82</ele>
        <time>2021-10-17T08:39:34.000Z</time>
      </trkpt>
      <trkpt lat="48.93963" lon="2.0217">
        <ele>32.64</ele>
        <time>2021-10-17T08:39:51.000Z</time>
      </trkpt>
      <trkpt lat="48.93974" lon="2.02192">
        <ele>32.12</ele>
        <time>2021-10-17T08:40:12.000Z</time>
      </trkpt>
      <trkpt lat="48.93986" lon="2.02213">
        <ele>31.72</ele>
        <time>2021-10-17T08:40:24.000Z</time>
      </trkpt>
      <trkpt lat="48.93995" lon="2.02237">
        <ele>31.64</ele>
        <time>2021-10-17T08:40:35.000Z</time>
      </trkpt>
      <trkpt lat="48.94006" lon="2.02261">
        <ele>32.72</ele>
        <time>2021-10-17T08:41:03.000Z</time>
      </trkpt>
      <trkpt lat="48.9402" lon="2.02279">
        <ele>32.25</ele>
        <time>2021-10-17T08:41:26.000Z</time>
      </trkpt>
      <trkpt lat="48.94034" lon="2.02301">
        <ele>31.88</ele>
        <time>2021-10-17T08:41:44.000Z</time>
      </trkpt>
      <trkpt lat="48.94047" lon="2.02322">
        <ele>32.92</ele>
        <time>2021-10-17T08:41:57.999Z</time>
      </trkpt>
      <trkpt lat="48.94059" lon="2.02343">
        <ele>33.6</ele>
        <time>2021-10-17T08:42:15.999Z</time>
      </trkpt>
      <trkpt lat="48.9407" lon="2.02368">
        <ele>33.45</ele>
        <time>2021-10-17T08:42:32.999Z</time>
      </trkpt>
      <trkpt lat="48.94083" lon="2.02387">
        <ele>33.1</ele>
        <time>2021-10-17T08:42:50.999Z</time>
      </trkpt>
      <trkpt lat="48.94095" lon="2.02408">
        <ele>33.57</ele>
        <time>2021-10-17T08:43:04.999Z</time>
      </trkpt>
      <trkpt lat="48.94108" lon="2.0243">
        <ele>34.35</ele>
        <time>2021-10-17T08:43:22.999Z</time>
      </trkpt>
      <trkpt lat="48.9412" lon="2.02453">
        <ele>35.13</ele>
        <time>2021-10-17T08:43:35.999Z</time>
      </trkpt>
      <trkpt lat="48.94134" lon="2.02471">
        <ele>36.24</ele>
        <time>2021-10-17T08:43:47.999Z</time>
      </trkpt>
      <trkpt lat="48.94145" lon="2.02494">
        <ele>37.85</ele>
        <time>2021-10-17T08:44:04.999Z</time>
      </trkpt>
      <trkpt lat="48.94156" lon="2.02515">
        <ele>38.54</ele>
        <time>2021-10-17T08:44:20.999Z</time>
      </trkpt>
      <trkpt lat="48.94164" lon="2.02528">
        <ele>38.6</ele>
        <time>2021-10-17T08:44:29.999Z</time>
      </trkpt>
      <trkpt lat="48.94176" lon="2.0255">
        <ele>38.79</ele>
        <time>2021-10-17T08:44:46.999Z</time>
      </trkpt>
      <trkpt lat="48.94188" lon="2.02572">
        <ele>38.89</ele>
        <time>2021-10-17T08:45:03.999Z</time>
      </trkpt>
      <trkpt lat="48.942" lon="2.02593">
        <ele>38.09</ele>
        <time>2021-10-17T08:45:18.999Z</time>
      </trkpt>
      <trkpt lat="48.94211" lon="2.02616">
        <ele>37.15</ele>
        <time>2021-10-17T08:45:35.999Z</time>
      </trkpt>
      <trkpt lat="48.9422" lon="2.0264">
        <ele>36.59</ele>
        <time>2021-10-17T08:45:54.999Z</time>
      </trkpt>
      <trkpt lat="48.94231" lon="2.02662">
        <ele>36.35</ele>
        <time>2021-10-17T08:46:10.999Z</time>
      </trkpt>
      <trkpt lat="48.9424" lon="2.02687">
        <ele>36.26</ele>
        <time>2021-10-17T08:46:24.999Z</time>
      </trkpt>
      <trkpt lat="48.94249" lon="2.02712">
        <ele>36.04</ele>
        <time>2021-10-17T08:46:42.999Z</time>
      </trkpt>
      <trkpt lat="48.94257" lon="2.02737">
        <ele>36.49</ele>
        <time>2021-10-17T08:47:03.999Z</time>
      </trkpt>
      <trkpt lat="48.94267" lon="2.02762">
        <ele>36.55</ele>
        <time>2021-10-17T08:47:25.999Z</time>
      </trkpt>
      <trkpt lat="48.9428" lon="2.02783">
        <ele>36.24</ele>
        <time>2021-10-17T08:47:38.999Z</time>
      </trkpt>
      <trkpt lat="48.94285" lon="2.0281">
        <ele>36.07</ele>
        <time>2021-10-17T08:47:56.999Z</time>
      </trkpt>
      <trkpt lat="48.94296" lon="2.02834">
        <ele>36.57</ele>
        <time>2021-10-17T08:48:10.999Z</time>
      </trkpt>
      <trkpt lat="48.94306" lon="2.0286">
        <ele>37.22</ele>
        <time>2021-10-17T08:48:26.999Z</time>
      </trkpt>
      <trkpt lat="48.94308" lon="2.02888">
        <ele>38.23</ele>
        <time>2021-10-17T08:49:08.999Z</time>
      </trkpt>
      <trkpt lat="48.9432" lon="2.02908">
        <ele>37.93</ele>
        <time>2021-10-17T08:50:01.999Z</time>
      </trkpt>
      <trkpt lat="48.9433" lon="2.02933">
        <ele>38.05</ele>
        <time>2021-10-17T08:50:14.999Z</time>
      </trkpt>
      <trkpt lat="48.94334" lon="2.0296">
        <ele>37.52</ele>
        <time>2021-10-17T08:50:32.999Z</time>
      </trkpt>
      <trkpt lat="48.94341" lon="2.02988">
        <ele>37.92</ele>
        <time>2021-10-17T08:51:55.999Z</time>
      </trkpt>
      <trkpt lat="48.94356" lon="2.03003">
        <ele>37.94</ele>
        <time>2021-10-17T08:52:06.999Z</time>
      </trkpt>
      <trkpt lat="48.94365" lon="2.03027">
        <ele>38.8</ele>
        <time>2021-10-17T08:52:24.999Z</time>
      </trkpt>
      <trkpt lat="48.94372" lon="2.03054">
        <ele>40.24</ele>
        <time>2021-10-17T08:52:41.999Z</time>
      </trkpt>
      <trkpt lat="48.94383" lon="2.03077">
        <ele>41.23</ele>
        <time>2021-10-17T08:53:19.999Z</time>
      </trkpt>
      <trkpt lat="48.94402" lon="2.03077">
        <ele>39.98</ele>
        <time>2021-10-17T08:53:37.999Z</time>
      </trkpt>
      <trkpt lat="48.9442" lon="2.03074">
        <ele>39.03</ele>
        <time>2021-10-17T08:53:51.999Z</time>
      </trkpt>
      <trkpt lat="48.94439" lon="2.03071">
        <ele>38.18</ele>
        <time>2021-10-17T08:54:08.000Z</time>
      </trkpt>
      <trkpt lat="48.94457" lon="2.03067">
        <ele>37.84</ele>
        <time>2021-10-17T08:54:22.000Z</time>
      </trkpt>
      <trkpt lat="48.94475" lon="2.03064">
        <ele>37.88</ele>
        <time>2021-10-17T08:54:35.000Z</time>
      </trkpt>
      <trkpt lat="48.94494" lon="2.03065">
        <ele>37.85</ele>
        <time>2021-10-17T08:54:52.000Z</time>
      </trkpt>
      <trkpt lat="48.94512" lon="2.03064">
        <ele>38.09</ele>
        <time>2021-10-17T08:55:07.000Z</time>
      </trkpt>
      <trkpt lat="48.94531" lon="2.03066">
        <ele>38.26</ele>
        <time>2021-10-17T08:55:23.000Z</time>
      </trkpt>
      <trkpt lat="48.94549" lon="2.03064">
        <ele>38.73</ele>
        <time>2021-10-17T08:55:36.000Z</time>
      </trkpt>
      <trkpt lat="48.94567" lon="2.03059">
        <ele>38.97</ele>
        <time>2021-10-17T08:55:49.000Z</time>
      </trkpt>
      <trkpt lat="48.94586" lon="2.03052">
        <ele>39.01</ele>
        <time>2021-10-17T08:56:03.000Z</time>
      </trkpt>
      <trkpt lat="48.94605" lon="2.03047">
        <ele>39.05</ele>
        <time>2021-10-17T08:56:16.000Z</time>
      </trkpt>
      <trkpt lat="48.94624" lon="2.03049">
        <ele>39.69</ele>
        <time>2021-10-17T08:56:39.000Z</time>
      </trkpt>
      <trkpt lat="48.94638" lon="2.03068">
        <ele>40.52</ele>
        <time>2021-10-17T08:56:54.000Z</time>
      </trkpt>
      <trkpt lat="48.94654" lon="2.03084">
        <ele>40.8</ele>
        <time>2021-10-17T08:57:08.000Z</time>
      </trkpt>
      <trkpt lat="48.94669" lon="2.03101">
        <ele>41.13</ele>
        <time>2021-10-17T08:57:20.000Z</time>
      </trkpt>
      <trkpt lat="48.94686" lon="2.03115">
        <ele>41.93</ele>
        <time>2021-10-17T08:57:37.000Z</time>
      </trkpt>
      <trkpt lat="48.94703" lon="2.0313">
        <ele>42.44</ele>
        <time>2021-10-17T08:57:53.000Z</time>
      </trkpt>
      <trkpt lat="48.94721" lon="2.03134">
        <ele>41.99</ele>
        <time>2021-10-17T08:59:19.000Z</time>
      </trkpt>
      <trkpt lat="48.94739" lon="2.03142">
        <ele>41.11</ele>
        <time>2021-10-17T08:59:32.000Z</time>
      </trkpt>
      <trkpt lat="48.94757" lon="2.03139">
        <ele>39.22</ele>
        <time>2021-10-17T08:59:53.000Z</time>
      </trkpt>
      <trkpt lat="48.94776" lon="2.03137">
        <ele>37.64</ele>
        <time>2021-10-17T09:00:06.000Z</time>
      </trkpt>
      <trkpt lat="48.94794" lon="2.03132">
        <ele>37.2</ele>
        <time>2021-10-17T09:00:21.000Z</time>
      </trkpt>
      <trkpt lat="48.94813" lon="2.03124">
        <ele>38.42</ele>
        <time>2021-10-17T09:00:35.000Z</time>
      </trkpt>
      <trkpt lat="48.9483" lon="2.03111">
        <ele>38.87</ele>
        <time>2021-10-17T09:00:53.000Z</time>
      </trkpt>
      <trkpt lat="48.94846" lon="2.03098">
        <ele>37.76</ele>
        <time>2021-10-17T09:01:21.000Z</time>
      </trkpt>
      <trkpt lat="48.94865" lon="2.03093">
        <ele>36.78</ele>
        <time>2021-10-17T09:01:36.000Z</time>
      </trkpt>
      <trkpt lat="48.94883" lon="2.03101">
        <ele>35.96</ele>
        <time>2021-10-17T09:01:53.000Z</time>
      </trkpt>
      <trkpt lat="48.94899" lon="2.03116">
        <ele>36.72</ele>
        <time>2021-10-17T09:02:08.000Z</time>
      </trkpt>
      <trkpt lat="48.94918" lon="2.03121">
        <ele>37.42</ele>
        <time>2021-10-17T09:02:22.000Z</time>
      </trkpt>
      <trkpt lat="48.94936" lon="2.0312">
        <ele>38.29</ele>
        <time>2021-10-17T09:02:35.000Z</time>
      </trkpt>
      <trkpt lat="48.94954" lon="2.03115">
        <ele>38.77</ele>
        <time>2021-10-17T09:02:48.000Z</time>
      </trkpt>
      <trkpt lat="48.94973" lon="2.03111">
        <ele>38.39</ele>
        <time>2021-10-17T09:03:04.000Z</time>
      </trkpt>
      <trkpt lat="48.94991" lon="2.03107">
        <ele>37.64</ele>
        <time>2021-10-17T09:03:22.000Z</time>
      </trkpt>
      <trkpt lat="48.95009" lon="2.03111">
        <ele>37.93</ele>
        <time>2021-10-17T09:03:37.000Z</time>
      </trkpt>
      <trkpt lat="48.95027" lon="2.03113">
        <ele>37.79</ele>
        <time>2021-10-17T09:04:07.000Z</time>
      </trkpt>
      <trkpt lat="48.95035" lon="2.03138">
        <ele>37.33</ele>
        <time>2021-10-17T09:04:24.000Z</time>
      </trkpt>
      <trkpt lat="48.95048" lon="2.03159">
        <ele>38.6</ele>
        <time>2021-10-17T09:04:50.000Z</time>
      </trkpt>
      <trkpt lat="48.95064" lon="2.03175">
        <ele>38.59</ele>
        <time>2021-10-17T09:06:39.999Z</time>
      </trkpt>
      <trkpt lat="48.9508" lon="2.03188">
        <ele>38.24</ele>
        <time>2021-10-17T09:07:04.999Z</time>
      </trkpt>
      <trkpt lat="48.95097" lon="2.03202">
        <ele>40.33</ele>
        <time>2021-10-17T09:07:45.999Z</time>
      </trkpt>
      <trkpt lat="48.95114" lon="2.0322">
        <ele>44.45</ele>
        <time>2021-10-17T09:10:16.999Z</time>
      </trkpt>
      <trkpt lat="48.95127" lon="2.03243">
        <ele>44.41</ele>
        <time>2021-10-17T09:10:27.999Z</time>
      </trkpt>
      <trkpt lat="48.95132" lon="2.03269">
        <ele>44.3</ele>
        <time>2021-10-17T09:10:40.999Z</time>
      </trkpt>
      <trkpt lat="48.9514" lon="2.03295">
        <ele>42.72</ele>
        <time>2021-10-17T09:11:52.999Z</time>
      </trkpt>
      <trkpt lat="48.95155" lon="2.03314">
        <ele>41.53</ele>
        <time>2021-10-17T09:12:14.999Z</time>
      </trkpt>
      <trkpt lat="48.95171" lon="2.03327">
        <ele>40.78</ele>
        <time>2021-10-17T09:12:25.999Z</time>
      </trkpt>
      <trkpt lat="48.95187" lon="2.03341">
        <ele>40.1</ele>
        <time>2021-10-17T09:12:46.999Z</time>
      </trkpt>
      <trkpt lat="48.95205" lon="2.03349">
        <ele>40.27</ele>
        <time>2021-10-17T09:13:08.999Z</time>
      </trkpt>
      <trkpt lat="48.95221" lon="2.03362">
        <ele>41.66</ele>
        <time>2021-10-17T09:13:36.999Z</time>
      </trkpt>
      <trkpt lat="48.95228" lon="2.03337">
        <ele>50.77</ele>
        <time>2021-10-17T09:21:19.000Z</time>
      </trkpt>
      <trkpt lat="48.95234" lon="2.0331">
        <ele>49.74</ele>
        <time>2021-10-17T09:21:40.000Z</time>
      </trkpt>
      <trkpt lat="48.95242" lon="2.03284">
        <ele>49.93</ele>
        <time>2021-10-17T09:21:54.000Z</time>
      </trkpt>
      <trkpt lat="48.9525" lon="2.03259">
        <ele>50.52</ele>
        <time>2021-10-17T09:22:10.000Z</time>
      </trkpt>
      <trkpt lat="48.95259" lon="2.03233">
        <ele>49.98</ele>
        <time>2021-10-17T09:22:27.000Z</time>
      </trkpt>
      <trkpt lat="48.9527" lon="2.03209">
        <ele>50.33</ele>
        <time>2021-10-17T09:22:45.000Z</time>
      </trkpt>
      <trkpt lat="48.9528" lon="2.03182">
        <ele>52.16</ele>
        <time>2021-10-17T09:23:23.000Z</time>
      </trkpt>
      <trkpt lat="48.95291" lon="2.03161">
        <ele>52.87</ele>
        <time>2021-10-17T09:23:37.000Z</time>
      </trkpt>
      <trkpt lat="48.953" lon="2.03135">
        <ele>52.59</ele>
        <time>2021-10-17T09:23:54.000Z</time>
      </trkpt>
      <trkpt lat="48.95306" lon="2.03108">
        <ele>52.1</ele>
        <time>2021-10-17T09:24:07.000Z</time>
      </trkpt>
      <trkpt lat="48.95315" lon="2.03084">
        <ele>51.57</ele>
        <time>2021-10-17T09:24:22.000Z</time>
      </trkpt>
      <trkpt lat="48.95328" lon="2.03064">
        <ele>52.78</ele>
        <time>2021-10-17T09:24:40.000Z</time>
      </trkpt>
      <trkpt lat="48.95335" lon="2.03038">
        <ele>53</ele>
        <time>2021-10-17T09:24:55.000Z</time>
      </trkpt>
      <trkpt lat="48.95345" lon="2.03013">
        <ele>53.42</ele>
        <time>2021-10-17T09:25:11.000Z</time>
      </trkpt>
      <trkpt lat="48.95356" lon="2.0299">
        <ele>53.28</ele>
        <time>2021-10-17T09:26:35.000Z</time>
      </trkpt>
      <trkpt lat="48.95364" lon="2.02965">
        <ele>54.31</ele>
        <time>2021-10-17T09:26:56.000Z</time>
      </trkpt>
      <trkpt lat="48.95372" lon="2.02939">
        <ele>53.76</ele>
        <time>2021-10-17T09:27:11.000Z</time>
      </trkpt>
      <trkpt lat="48.95382" lon="2.02916">
        <ele>53.32</ele>
        <time>2021-10-17T09:27:29.000Z</time>
      </trkpt>
      <trkpt lat="48.95394" lon="2.02895">
        <ele>51.5</ele>
        <time>2021-10-17T09:27:46.000Z</time>
      </trkpt>
      <trkpt lat="48.95406" lon="2.02873">
        <ele>50.86</ele>
        <time>2021-10-17T09:28:01.000Z</time>
      </trkpt>
      <trkpt lat="48.95416" lon="2.02851">
        <ele>51.72</ele>
        <time>2021-10-17T09:28:19.000Z</time>
      </trkpt>
      <trkpt lat="48.9543" lon="2.0283">
        <ele>52.87</ele>
        <time>2021-10-17T09:28:36.000Z</time>
      </trkpt>
      <trkpt lat="48.9544" lon="2.02804">
        <ele>66.06</ele>
        <time>2021-10-17T09:29:28.000Z</time>
      </trkpt>
      <trkpt lat="48.95453" lon="2.02785">
        <ele>69.81</ele>
        <time>2021-10-17T09:29:49.000Z</time>
      </trkpt>
      <trkpt lat="48.95465" lon="2.02763">
        <ele>67.48</ele>
        <time>2021-10-17T09:30:08.999Z</time>
      </trkpt>
      <trkpt lat="48.95479" lon="2.02744">
        <ele>61.39</ele>
        <time>2021-10-17T09:30:30.999Z</time>
      </trkpt>
      <trkpt lat="48.95488" lon="2.0272">
        <ele>57.49</ele>
        <time>2021-10-17T09:30:44.999Z</time>
      </trkpt>
      <trkpt lat="48.95498" lon="2.02697">
        <ele>54.61</ele>
        <time>2021-10-17T09:31:00.999Z</time>
      </trkpt>
      <trkpt lat="48.95509" lon="2.02675">
        <ele>51.94</ele>
        <time>2021-10-17T09:31:15.999Z</time>
      </trkpt>
      <trkpt lat="48.95524" lon="2.02657">
        <ele>49.74</ele>
        <time>2021-10-17T09:31:31.999Z</time>
      </trkpt>
      <trkpt lat="48.95536" lon="2.02636">
        <ele>48.15</ele>
        <time>2021-10-17T09:31:48.999Z</time>
      </trkpt>
      <trkpt lat="48.95549" lon="2.02616">
        <ele>47.36</ele>
        <time>2021-10-17T09:32:05.999Z</time>
      </trkpt>
      <trkpt lat="48.95561" lon="2.02595">
        <ele>46.77</ele>
        <time>2021-10-17T09:32:27.999Z</time>
      </trkpt>
      <trkpt lat="48.95571" lon="2.02572">
        <ele>46.94</ele>
        <time>2021-10-17T09:32:45.999Z</time>
      </trkpt>
      <trkpt lat="48.95584" lon="2.02552">
        <ele>46.66</ele>
        <time>2021-10-17T09:33:00.999Z</time>
      </trkpt>
      <trkpt lat="48.95596" lon="2.02531">
        <ele>47.12</ele>
        <time>2021-10-17T09:33:16.999Z</time>
      </trkpt>
      <trkpt lat="48.95609" lon="2.02512">
        <ele>47.4</ele>
        <time>2021-10-17T09:33:39.999Z</time>
      </trkpt>
      <trkpt lat="48.95623" lon="2.02495">
        <ele>48.2</ele>
        <time>2021-10-17T09:34:06.999Z</time>
      </trkpt>
      <trkpt lat="48.95637" lon="2.02476">
        <ele>47.52</ele>
        <time>2021-10-17T09:34:29.999Z</time>
      </trkpt>
      <trkpt lat="48.9565" lon="2.02457">
        <ele>47.43</ele>
        <time>2021-10-17T09:34:44.999Z</time>
      </trkpt>
      <trkpt lat="48.95663" lon="2.02435">
        <ele>47.65</ele>
        <time>2021-10-17T09:35:00.999Z</time>
      </trkpt>
      <trkpt lat="48.95674" lon="2.02412">
        <ele>48.34</ele>
        <time>2021-10-17T09:35:16.999Z</time>
      </trkpt>
      <trkpt lat="48.95684" lon="2.02389">
        <ele>49.83</ele>
        <time>2021-10-17T09:35:33.999Z</time>
      </trkpt>
      <trkpt lat="48.95699" lon="2.02368">
        <ele>51.48</ele>
        <time>2021-10-17T09:35:51.999Z</time>
      </trkpt>
      <trkpt lat="48.95709" lon="2.02343">
        <ele>51.79</ele>
        <time>2021-10-17T09:36:07.999Z</time>
      </trkpt>
      <trkpt lat="48.95722" lon="2.02324">
        <ele>51.5</ele>
        <time>2021-10-17T09:36:24.999Z</time>
      </trkpt>
      <trkpt lat="48.95739" lon="2.02308">
        <ele>52.18</ele>
        <time>2021-10-17T09:36:41.999Z</time>
      </trkpt>
      <trkpt lat="48.95752" lon="2.02288">
        <ele>53.11</ele>
        <time>2021-10-17T09:36:57.999Z</time>
      </trkpt>
      <trkpt lat="48.95768" lon="2.0227">
        <ele>53.24</ele>
        <time>2021-10-17T09:37:19.999Z</time>
      </trkpt>
      <trkpt lat="48.95785" lon="2.02257">
        <ele>52.66</ele>
        <time>2021-10-17T09:37:33.999Z</time>
      </trkpt>
      <trkpt lat="48.95803" lon="2.02245">
        <ele>52.52</ele>
        <time>2021-10-17T09:37:51.999Z</time>
      </trkpt>
      <trkpt lat="48.95818" lon="2.0223">
        <ele>52.28</ele>
        <time>2021-10-17T09:38:05.999Z</time>
      </trkpt>
      <trkpt lat="48.95834" lon="2.02212">
        <ele>52.76</ele>
        <time>2021-10-17T09:38:23.999Z</time>
      </trkpt>
      <trkpt lat="48.95849" lon="2.02193">
        <ele>53.4</ele>
        <time>2021-10-17T09:38:40.999Z</time>
      </trkpt>
      <trkpt lat="48.95866" lon="2.02179">
        <ele>54.38</ele>
        <time>2021-10-17T09:38:56.999Z</time>
      </trkpt>
      <trkpt lat="48.9588" lon="2.02162">
        <ele>55.54</ele>
        <time>2021-10-17T09:39:14.999Z</time>
      </trkpt>
      <trkpt lat="48.95896" lon="2.02145">
        <ele>54.01</ele>
        <time>2021-10-17T09:39:41.999Z</time>
      </trkpt>
      <trkpt lat="48.95909" lon="2.02127">
        <ele>51.79</ele>
        <time>2021-10-17T09:40:00.999Z</time>
      </trkpt>
      <trkpt lat="48.95926" lon="2.02114">
        <ele>50.49</ele>
        <time>2021-10-17T09:40:19.999Z</time>
      </trkpt>
      <trkpt lat="48.95944" lon="2.02106">
        <ele>50.08</ele>
        <time>2021-10-17T09:40:36.999Z</time>
      </trkpt>
      <trkpt lat="48.95961" lon="2.02094">
        <ele>49.42</ele>
        <time>2021-10-17T09:40:53.999Z</time>
      </trkpt>
      <trkpt lat="48.95978" lon="2.02079">
        <ele>49.27</ele>
        <time>2021-10-17T09:41:10.999Z</time>
      </trkpt>
      <trkpt lat="48.95994" lon="2.02064">
        <ele>49.13</ele>
        <time>2021-10-17T09:41:27.999Z</time>
      </trkpt>
      <trkpt lat="48.9601" lon="2.02048">
        <ele>48.46</ele>
        <time>2021-10-17T09:41:46.999Z</time>
      </trkpt>
      <trkpt lat="48.96027" lon="2.02034">
        <ele>48.25</ele>
        <time>2021-10-17T09:42:02.000Z</time>
      </trkpt>
      <trkpt lat="48.96041" lon="2.02015">
        <ele>48.48</ele>
        <time>2021-10-17T09:42:16.000Z</time>
      </trkpt>
      <trkpt lat="48.96058" lon="2.02005">
        <ele>48.6</ele>
        <time>2021-10-17T09:42:30.000Z</time>
      </trkpt>
      <trkpt lat="48.96075" lon="2.0199">
        <ele>49.22</ele>
        <time>2021-10-17T09:42:50.000Z</time>
      </trkpt>
      <trkpt lat="48.96093" lon="2.01977">
        <ele>48.71</ele>
        <time>2021-10-17T09:43:06.000Z</time>
      </trkpt>
      <trkpt lat="48.96109" lon="2.01963">
        <ele>47.15</ele>
        <time>2021-10-17T09:43:24.000Z</time>
      </trkpt>
      <trkpt lat="48.96128" lon="2.01953">
        <ele>46.46</ele>
        <time>2021-10-17T09:43:40.000Z</time>
      </trkpt>
      <trkpt lat="48.96146" lon="2.01943">
        <ele>46.27</ele>
        <time>2021-10-17T09:43:58.000Z</time>
      </trkpt>
      <trkpt lat="48.96164" lon="2.01934">
        <ele>45.98</ele>
        <time>2021-10-17T09:44:14.000Z</time>
      </trkpt>
      <trkpt lat="48.96183" lon="2.01931">
        <ele>47.23</ele>
        <time>2021-10-17T09:44:26.000Z</time>
      </trkpt>
      <trkpt lat="48.96199" lon="2.01917">
        <ele>48.08</ele>
        <time>2021-10-17T09:44:41.000Z</time>
      </trkpt>
      <trkpt lat="48.96216" lon="2.01906">
        <ele>47.5</ele>
        <time>2021-10-17T09:44:58.000Z</time>
      </trkpt>
      <trkpt lat="48.96233" lon="2.01896">
        <ele>46.42</ele>
        <time>2021-10-17T09:45:15.000Z</time>
      </trkpt>
      <trkpt lat="48.96251" lon="2.01884">
        <ele>45.6</ele>
        <time>2021-10-17T09:45:47.000Z</time>
      </trkpt>
      <trkpt lat="48.96268" lon="2.01873">
        <ele>45.59</ele>
        <time>2021-10-17T09:46:04.000Z</time>
      </trkpt>
      <trkpt lat="48.96287" lon="2.01866">
        <ele>45.63</ele>
        <time>2021-10-17T09:46:21.000Z</time>
      </trkpt>
      <trkpt lat="48.96304" lon="2.01856">
        <ele>45.55</ele>
        <time>2021-10-17T09:46:39.000Z</time>
      </trkpt>
      <trkpt lat="48.96321" lon="2.01847">
        <ele>44.75</ele>
        <time>2021-10-17T09:46:55.000Z</time>
      </trkpt>
      <trkpt lat="48.96338" lon="2.01837">
        <ele>44.48</ele>
        <time>2021-10-17T09:47:08.000Z</time>
      </trkpt>
      <trkpt lat="48.96357" lon="2.01827">
        <ele>44.68</ele>
        <time>2021-10-17T09:47:25.000Z</time>
      </trkpt>
      <trkpt lat="48.96374" lon="2.01818">
        <ele>45.08</ele>
        <time>2021-10-17T09:47:42.000Z</time>
      </trkpt>
      <trkpt lat="48.96391" lon="2.0181">
        <ele>44.91</ele>
        <time>2021-10-17T09:47:56.000Z</time>
      </trkpt>
      <trkpt lat="48.96408" lon="2.018">
        <ele>44.59</ele>
        <time>2021-10-17T09:48:12.000Z</time>
      </trkpt>
      <trkpt lat="48.96427" lon="2.01796">
        <ele>49.26</ele>
        <time>2021-10-17T09:51:38.000Z</time>
      </trkpt>
      <trkpt lat="48.96446" lon="2.01792">
        <ele>52.3</ele>
        <time>2021-10-17T09:52:00.000Z</time>
      </trkpt>
      <trkpt lat="48.96464" lon="2.01784">
        <ele>54.65</ele>
        <time>2021-10-17T09:52:16.000Z</time>
      </trkpt>
      <trkpt lat="48.96479" lon="2.01768">
        <ele>56.09</ele>
        <time>2021-10-17T09:52:33.000Z</time>
      </trkpt>
      <trkpt lat="48.96498" lon="2.0176">
        <ele>57.93</ele>
        <time>2021-10-17T09:52:50.000Z</time>
      </trkpt>
      <trkpt lat="48.96513" lon="2.01776">
        <ele>57.63</ele>
        <time>2021-10-17T09:53:13.000Z</time>
      </trkpt>
      <trkpt lat="48.96532" lon="2.01773">
        <ele>54.14</ele>
        <time>2021-10-17T09:54:03.999Z</time>
      </trkpt>
      <trkpt lat="48.96548" lon="2.01756">
        <ele>50.95</ele>
        <time>2021-10-17T09:54:23.999Z</time>
      </trkpt>
      <trkpt lat="48.96566" lon="2.01743">
        <ele>48.97</ele>
        <time>2021-10-17T09:54:43.999Z</time>
      </trkpt>
      <trkpt lat="48.96584" lon="2.01732">
        <ele>47.32</ele>
        <time>2021-10-17T09:54:57.999Z</time>
      </trkpt>
      <trkpt lat="48.96604" lon="2.01734">
        <ele>46.06</ele>
        <time>2021-10-17T09:55:23.999Z</time>
      </trkpt>
      <trkpt lat="48.96622" lon="2.01726">
        <ele>47.41</ele>
        <time>2021-10-17T09:55:35.999Z</time>
      </trkpt>
      <trkpt lat="48.96639" lon="2.01718">
        <ele>47.56</ele>
        <time>2021-10-17T09:56:02.999Z</time>
      </trkpt>
      <trkpt lat="48.96659" lon="2.0171">
        <ele>46.74</ele>
        <time>2021-10-17T09:56:21.999Z</time>
      </trkpt>
      <trkpt lat="48.96677" lon="2.01703">
        <ele>46.59</ele>
        <time>2021-10-17T09:56:34.999Z</time>
      </trkpt>
      <trkpt lat="48.96696" lon="2.01703">
        <ele>47.18</ele>
        <time>2021-10-17T09:56:50.999Z</time>
      </trkpt>
      <trkpt lat="48.96714" lon="2.01696">
        <ele>47.53</ele>
        <time>2021-10-17T09:57:12.999Z</time>
      </trkpt>
      <trkpt lat="48.96733" lon="2.01693">
        <ele>47.32</ele>
        <time>2021-10-17T09:57:28.999Z</time>
      </trkpt>
      <trkpt lat="48.96751" lon="2.0169">
        <ele>47.06</ele>
        <time>2021-10-17T09:57:46.999Z</time>
      </trkpt>
      <trkpt lat="48.96758" lon="2.01716">
        <ele>47.88</ele>
        <time>2021-10-17T09:58:17.999Z</time>
      </trkpt>
      <trkpt lat="48.96756" lon="2.01744">
        <ele>48.25</ele>
        <time>2021-10-17T09:58:33.999Z</time>
      </trkpt>
      <trkpt lat="48.96751" lon="2.0177">
        <ele>48.89</ele>
        <time>2021-10-17T09:58:49.999Z</time>
      </trkpt>
      <trkpt lat="48.9675" lon="2.01798">
        <ele>47.03</ele>
        <time>2021-10-17T09:59:10.999Z</time>
      </trkpt>
      <trkpt lat="48.96748" lon="2.01826">
        <ele>45.44</ele>
        <time>2021-10-17T09:59:25.999Z</time>
      </trkpt>
      <trkpt lat="48.96751" lon="2.01855">
        <ele>45.25</ele>
        <time>2021-10-17T09:59:44.999Z</time>
      </trkpt>
      <trkpt lat="48.96753" lon="2.01886">
        <ele>46.1</ele>
        <time>2021-10-17T09:59:59.999Z</time>
      </trkpt>
      <trkpt lat="48.96753" lon="2.01915">
        <ele>46.78</ele>
        <time>2021-10-17T10:00:16.999Z</time>
      </trkpt>
      <trkpt lat="48.96755" lon="2.01944">
        <ele>46.49</ele>
        <time>2021-10-17T10:00:37.999Z</time>
      </trkpt>
      <trkpt lat="48.96759" lon="2.01971">
        <ele>48.15</ele>
        <time>2021-10-17T10:01:00.999Z</time>
      </trkpt>
      <trkpt lat="48.9676" lon="2.01998">
        <ele>48.12</ele>
        <time>2021-10-17T10:01:34.999Z</time>
      </trkpt>
      <trkpt lat="48.96761" lon="2.02029">
        <ele>48.46</ele>
        <time>2021-10-17T10:01:53.999Z</time>
      </trkpt>
      <trkpt lat="48.96763" lon="2.02059">
        <ele>48.94</ele>
        <time>2021-10-17T10:02:09.999Z</time>
      </trkpt>
      <trkpt lat="48.96763" lon="2.02088">
        <ele>49.38</ele>
        <time>2021-10-17T10:02:24.999Z</time>
      </trkpt>
      <trkpt lat="48.96762" lon="2.02118">
        <ele>50.32</ele>
        <time>2021-10-17T10:02:41.999Z</time>
      </trkpt>
      <trkpt lat="48.96764" lon="2.02145">
        <ele>50.01</ele>
        <time>2021-10-17T10:03:00.999Z</time>
      </trkpt>
      <trkpt lat="48.96762" lon="2.02175">
        <ele>48.99</ele>
        <time>2021-10-17T10:03:19.999Z</time>
      </trkpt>
      <trkpt lat="48.96762" lon="2.02203">
        <ele>47.94</ele>
        <time>2021-10-17T10:03:34.999Z</time>
      </trkpt>
      <trkpt lat="48.96763" lon="2.02232">
        <ele>47.39</ele>
        <time>2021-10-17T10:03:51.999Z</time>
      </trkpt>
      <trkpt lat="48.96767" lon="2.02262">
        <ele>48.53</ele>
        <time>2021-10-17T10:04:07.999Z</time>
      </trkpt>
      <trkpt lat="48.96767" lon="2.02291">
        <ele>50.13</ele>
        <time>2021-10-17T10:04:25.999Z</time>
      </trkpt>
      <trkpt lat="48.96767" lon="2.0232">
        <ele>51.49</ele>
        <time>2021-10-17T10:04:38.999Z</time>
      </trkpt>
      <trkpt lat="48.96766" lon="2.02348">
        <ele>53.02</ele>
        <time>2021-10-17T10:04:57.999Z</time>
      </trkpt>
      <trkpt lat="48.96782" lon="2.02363">
        <ele>51.52</ele>
        <time>2021-10-17T10:05:22.999Z</time>
      </trkpt>
      <trkpt lat="48.96801" lon="2.02364">
        <ele>51.21</ele>
        <time>2021-10-17T10:05:38.000Z</time>
      </trkpt>
      <trkpt lat="48.9682" lon="2.02369">
        <ele>51.32</ele>
        <time>2021-10-17T10:05:58.000Z</time>
      </trkpt>
      <trkpt lat="48.96838" lon="2.02375">
        <ele>52.14</ele>
        <time>2021-10-17T10:06:13.000Z</time>
      </trkpt>
      <trkpt lat="48.96856" lon="2.02373">
        <ele>53.14</ele>
        <time>2021-10-17T10:06:25.000Z</time>
      </trkpt>
      <trkpt lat="48.96876" lon="2.0237">
        <ele>53.98</ele>
        <time>2021-10-17T10:06:41.000Z</time>
      </trkpt>
      <trkpt lat="48.96893" lon="2.02376">
        <ele>53.16</ele>
        <time>2021-10-17T10:07:04.000Z</time>
      </trkpt>
      <trkpt lat="48.96912" lon="2.02377">
        <ele>53.67</ele>
        <time>2021-10-17T10:07:21.000Z</time>
      </trkpt>
      <trkpt lat="48.9693" lon="2.02381">
        <ele>54.14</ele>
        <time>2021-10-17T10:07:37.000Z</time>
      </trkpt>
      <trkpt lat="48.96949" lon="2.02388">
        <ele>56.73</ele>
        <time>2021-10-17T10:07:54.000Z</time>
      </trkpt>
      <trkpt lat="48.96967" lon="2.02393">
        <ele>59.78</ele>
        <time>2021-10-17T10:08:11.000Z</time>
      </trkpt>
      <trkpt lat="48.96985" lon="2.02394">
        <ele>59.98</ele>
        <time>2021-10-17T10:08:25.000Z</time>
      </trkpt>
      <trkpt lat="48.97004" lon="2.02397">
        <ele>56.96</ele>
        <time>2021-10-17T10:14:00.000Z</time>
      </trkpt>
      <trkpt lat="48.97021" lon="2.02408">
        <ele>57.42</ele>
        <time>2021-10-17T10:14:20.000Z</time>
      </trkpt>
      <trkpt lat="48.9703" lon="2.02433">
        <ele>58</ele>
        <time>2021-10-17T10:14:36.000Z</time>
      </trkpt>
      <trkpt lat="48.97036" lon="2.02461">
        <ele>58.44</ele>
        <time>2021-10-17T10:14:56.000Z</time>
      </trkpt>
      <trkpt lat="48.97036" lon="2.02488">
        <ele>57.53</ele>
        <time>2021-10-17T10:15:14.000Z</time>
      </trkpt>
      <trkpt lat="48.97035" lon="2.0251">
        <ele>56.22</ele>
        <time>2021-10-17T10:15:26.000Z</time>
      </trkpt>
      <trkpt lat="48.97032" lon="2.02538">
        <ele>55.25</ele>
        <time>2021-10-17T10:15:43.000Z</time>
      </trkpt>
      <trkpt lat="48.9703" lon="2.02566">
        <ele>54.92</ele>
        <time>2021-10-17T10:15:57.000Z</time>
      </trkpt>
      <trkpt lat="48.97026" lon="2.02593">
        <ele>55.04</ele>
        <time>2021-10-17T10:16:11.000Z</time>
      </trkpt>
      <trkpt lat="48.97023" lon="2.02621">
        <ele>55.28</ele>
        <time>2021-10-17T10:16:28.000Z</time>
      </trkpt>
      <trkpt lat="48.97024" lon="2.02651">
        <ele>54.94</ele>
        <time>2021-10-17T10:16:44.000Z</time>
      </trkpt>
      <trkpt lat="48.97024" lon="2.0268">
        <ele>54.23</ele>
        <time>2021-10-17T10:16:58.000Z</time>
      </trkpt>
      <trkpt lat="48.97023" lon="2.02709">
        <ele>54.55</ele>
        <time>2021-10-17T10:17:13.000Z</time>
      </trkpt>
      <trkpt lat="48.97021" lon="2.02736">
        <ele>55.24</ele>
        <time>2021-10-17T10:17:30.999Z</time>
      </trkpt>
      <trkpt lat="48.97017" lon="2.02765">
        <ele>55.83</ele>
        <time>2021-10-17T10:17:44.999Z</time>
      </trkpt>
      <trkpt lat="48.97033" lon="2.02778">
        <ele>57.02</ele>
        <time>2021-10-17T10:18:08.999Z</time>
      </trkpt>
      <trkpt lat="48.97049" lon="2.02765">
        <ele>59.3</ele>
        <time>2021-10-17T10:19:12.999Z</time>
      </trkpt>
      <trkpt lat="48.97052" lon="2.02793">
        <ele>60.22</ele>
        <time>2021-10-17T10:19:55.999Z</time>
      </trkpt>
      <trkpt lat="48.97053" lon="2.0282">
        <ele>60.26</ele>
        <time>2021-10-17T10:20:08.999Z</time>
      </trkpt>
      <trkpt lat="48.97069" lon="2.02834">
        <ele>60.77</ele>
        <time>2021-10-17T10:20:34.999Z</time>
      </trkpt>
      <trkpt lat="48.97087" lon="2.02843">
        <ele>60.5</ele>
        <time>2021-10-17T10:20:51.999Z</time>
      </trkpt>
      <trkpt lat="48.97101" lon="2.02824">
        <ele>60.29</ele>
        <time>2021-10-17T10:21:10.999Z</time>
      </trkpt>
      <trkpt lat="48.97105" lon="2.02797">
        <ele>60.48</ele>
        <time>2021-10-17T10:21:26.999Z</time>
      </trkpt>
      <trkpt lat="48.97116" lon="2.02774">
        <ele>61.4</ele>
        <time>2021-10-17T10:22:01.999Z</time>
      </trkpt>
      <trkpt lat="48.97135" lon="2.02771">
        <ele>62.98</ele>
        <time>2021-10-17T10:22:20.999Z</time>
      </trkpt>
      <trkpt lat="48.97153" lon="2.02769">
        <ele>66.55</ele>
        <time>2021-10-17T10:22:35.999Z</time>
      </trkpt>
      <trkpt lat="48.97172" lon="2.02766">
        <ele>71.73</ele>
        <time>2021-10-17T10:22:51.999Z</time>
      </trkpt>
      <trkpt lat="48.97191" lon="2.0277">
        <ele>75.32</ele>
        <time>2021-10-17T10:23:09.999Z</time>
      </trkpt>
      <trkpt lat="48.97209" lon="2.02774">
        <ele>76.55</ele>
        <time>2021-10-17T10:23:24.999Z</time>
      </trkpt>
      <trkpt lat="48.97219" lon="2.028">
        <ele>76.7</ele>
        <time>2021-10-17T10:23:41.999Z</time>
      </trkpt>
      <trkpt lat="48.97223" lon="2.02827">
        <ele>75.67</ele>
        <time>2021-10-17T10:23:56.999Z</time>
      </trkpt>
      <trkpt lat="48.97237" lon="2.02844">
        <ele>73.72</ele>
        <time>2021-10-17T10:24:30.999Z</time>
      </trkpt>
      <trkpt lat="48.97253" lon="2.0283">
        <ele>71.44</ele>
        <time>2021-10-17T10:24:55.999Z</time>
      </trkpt>
      <trkpt lat="48.97239" lon="2.02811">
        <ele>80.79</ele>
        <time>2021-10-17T10:38:41.106Z</time>
      </trkpt>
      <trkpt lat="48.97236" lon="2.02846">
        <ele>98.39</ele>
        <time>2021-10-17T10:44:20.987Z</time>
      </trkpt>
      <trkpt lat="48.97247" lon="2.02823">
        <ele>68.42</ele>
        <time>2021-10-17T10:45:57.999Z</time>
      </trkpt>
      <trkpt lat="48.9723" lon="2.02832">
        <ele>74.86</ele>
        <time>2021-10-17T10:56:43.000Z</time>
      </trkpt>
      <trkpt lat="48.97247" lon="2.02823">
        <ele>70.61</ele>
        <time>2021-10-17T10:58:30.000Z</time>
      </trkpt>
      <trkpt lat="48.9723" lon="2.02811">
        <ele>68.78</ele>
        <time>2021-10-17T11:02:39.000Z</time>
      </trkpt>
      <trkpt lat="48.9723" lon="2.02784">
        <ele>69</ele>
        <time>2021-10-17T11:03:00.999Z</time>
      </trkpt>
      <trkpt lat="48.97229" lon="2.02755">
        <ele>69.92</ele>
        <time>2021-10-17T11:03:13.999Z</time>
      </trkpt>
      <trkpt lat="48.97242" lon="2.02724">
        <ele>71.63</ele>
        <time>2021-10-17T11:03:36.999Z</time>
      </trkpt>
      <trkpt lat="48.97224" lon="2.02714">
        <ele>73.65</ele>
        <time>2021-10-17T11:03:59.999Z</time>
      </trkpt>
      <trkpt lat="48.97207" lon="2.02704">
        <ele>73.45</ele>
        <time>2021-10-17T11:04:14.999Z</time>
      </trkpt>
      <trkpt lat="48.97196" lon="2.02682">
        <ele>72.49</ele>
        <time>2021-10-17T11:04:32.999Z</time>
      </trkpt>
      <trkpt lat="48.97184" lon="2.0266">
        <ele>70.11</ele>
        <time>2021-10-17T11:04:56.999Z</time>
      </trkpt>
      <trkpt lat="48.97168" lon="2.02646">
        <ele>68.7</ele>
        <time>2021-10-17T11:05:18.999Z</time>
      </trkpt>
      <trkpt lat="48.97149" lon="2.02645">
        <ele>68.22</ele>
        <time>2021-10-17T11:05:29.999Z</time>
      </trkpt>
      <trkpt lat="48.9713" lon="2.02644">
        <ele>68.11</ele>
        <time>2021-10-17T11:05:42.999Z</time>
      </trkpt>
      <trkpt lat="48.97149" lon="2.02647">
        <ele>69.21</ele>
        <time>2021-10-17T11:06:46.999Z</time>
      </trkpt>
      <trkpt lat="48.97168" lon="2.02652">
        <ele>70.36</ele>
        <time>2021-10-17T11:07:01.999Z</time>
      </trkpt>
      <trkpt lat="48.97185" lon="2.02663">
        <ele>71.14</ele>
        <time>2021-10-17T11:07:19.999Z</time>
      </trkpt>
      <trkpt lat="48.97199" lon="2.02681">
        <ele>71.33</ele>
        <time>2021-10-17T11:07:34.999Z</time>
      </trkpt>
      <trkpt lat="48.97211" lon="2.02703">
        <ele>71.38</ele>
        <time>2021-10-17T11:07:54.999Z</time>
      </trkpt>
      <trkpt lat="48.97208" lon="2.0273">
        <ele>71.5</ele>
        <time>2021-10-17T11:08:11.999Z</time>
      </trkpt>
      <trkpt lat="48.9722" lon="2.02753">
        <ele>71.78</ele>
        <time>2021-10-17T11:08:27.999Z</time>
      </trkpt>
      <trkpt lat="48.97228" lon="2.02779">
        <ele>72.89</ele>
        <time>2021-10-17T11:08:43.999Z</time>
      </trkpt>
      <trkpt lat="48.97228" lon="2.02807">
        <ele>73.98</ele>
        <time>2021-10-17T11:09:00.999Z</time>
      </trkpt>
      <trkpt lat="48.97232" lon="2.02835">
        <ele>74.29</ele>
        <time>2021-10-17T11:09:24.999Z</time>
      </trkpt>
      <trkpt lat="48.97228" lon="2.02862">
        <ele>75.32</ele>
        <time>2021-10-17T11:09:37.999Z</time>
      </trkpt>
      <trkpt lat="48.97227" lon="2.02889">
        <ele>76.4</ele>
        <time>2021-10-17T11:09:53.999Z</time>
      </trkpt>
      <trkpt lat="48.97218" lon="2.02914">
        <ele>77.72</ele>
        <time>2021-10-17T11:10:09.999Z</time>
      </trkpt>
      <trkpt lat="48.97222" lon="2.02941">
        <ele>79.14</ele>
        <time>2021-10-17T11:10:48.999Z</time>
      </trkpt>
      <trkpt lat="48.97224" lon="2.02969">
        <ele>77.38</ele>
        <time>2021-10-17T11:11:12.999Z</time>
      </trkpt>
      <trkpt lat="48.9724" lon="2.02982">
        <ele>75.68</ele>
        <time>2021-10-17T11:11:28.999Z</time>
      </trkpt>
      <trkpt lat="48.97254" lon="2.03001">
        <ele>75.1</ele>
        <time>2021-10-17T11:11:44.999Z</time>
      </trkpt>
      <trkpt lat="48.97272" lon="2.03014">
        <ele>75.53</ele>
        <time>2021-10-17T11:12:00.999Z</time>
      </trkpt>
      <trkpt lat="48.97289" lon="2.03005">
        <ele>74.62</ele>
        <time>2021-10-17T11:12:19.999Z</time>
      </trkpt>
      <trkpt lat="48.97308" lon="2.03007">
        <ele>75.51</ele>
        <time>2021-10-17T11:13:43.999Z</time>
      </trkpt>
      <trkpt lat="48.97326" lon="2.02998">
        <ele>74.7</ele>
        <time>2021-10-17T11:13:59.999Z</time>
      </trkpt>
      <trkpt lat="48.97344" lon="2.02994">
        <ele>74.33</ele>
        <time>2021-10-17T11:14:17.999Z</time>
      </trkpt>
      <trkpt lat="48.97362" lon="2.02988">
        <ele>74.1</ele>
        <time>2021-10-17T11:14:38.000Z</time>
      </trkpt>
      <trkpt lat="48.9738" lon="2.02988">
        <ele>74.19</ele>
        <time>2021-10-17T11:14:54.000Z</time>
      </trkpt>
      <trkpt lat="48.97398" lon="2.02985">
        <ele>74.95</ele>
        <time>2021-10-17T11:15:12.000Z</time>
      </trkpt>
      <trkpt lat="48.97417" lon="2.02987">
        <ele>76.13</ele>
        <time>2021-10-17T11:15:27.000Z</time>
      </trkpt>
      <trkpt lat="48.97434" lon="2.02996">
        <ele>78.69</ele>
        <time>2021-10-17T11:15:43.000Z</time>
      </trkpt>
      <trkpt lat="48.97452" lon="2.03008">
        <ele>80.35</ele>
        <time>2021-10-17T11:16:00.000Z</time>
      </trkpt>
      <trkpt lat="48.97465" lon="2.03029">
        <ele>79.99</ele>
        <time>2021-10-17T11:16:16.000Z</time>
      </trkpt>
      <trkpt lat="48.97483" lon="2.03038">
        <ele>79.05</ele>
        <time>2021-10-17T11:16:32.000Z</time>
      </trkpt>
      <trkpt lat="48.97501" lon="2.03033">
        <ele>78.65</ele>
        <time>2021-10-17T11:16:48.000Z</time>
      </trkpt>
      <trkpt lat="48.9752" lon="2.03031">
        <ele>80.57</ele>
        <time>2021-10-17T11:17:48.000Z</time>
      </trkpt>
      <trkpt lat="48.97537" lon="2.03021">
        <ele>81.02</ele>
        <time>2021-10-17T11:18:06.000Z</time>
      </trkpt>
      <trkpt lat="48.97556" lon="2.03016">
        <ele>82.27</ele>
        <time>2021-10-17T11:18:23.000Z</time>
      </trkpt>
      <trkpt lat="48.97574" lon="2.03013">
        <ele>84.13</ele>
        <time>2021-10-17T11:18:40.000Z</time>
      </trkpt>
      <trkpt lat="48.97592" lon="2.03014">
        <ele>84.54</ele>
        <time>2021-10-17T11:18:59.000Z</time>
      </trkpt>
      <trkpt lat="48.9761" lon="2.03009">
        <ele>84.56</ele>
        <time>2021-10-17T11:19:14.000Z</time>
      </trkpt>
      <trkpt lat="48.97629" lon="2.03004">
        <ele>84.88</ele>
        <time>2021-10-17T11:19:29.000Z</time>
      </trkpt>
      <trkpt lat="48.97648" lon="2.02998">
        <ele>85.56</ele>
        <time>2021-10-17T11:19:43.000Z</time>
      </trkpt>
      <trkpt lat="48.97666" lon="2.02993">
        <ele>86.85</ele>
        <time>2021-10-17T11:19:56.000Z</time>
      </trkpt>
      <trkpt lat="48.97684" lon="2.02989">
        <ele>88.74</ele>
        <time>2021-10-17T11:20:14.000Z</time>
      </trkpt>
      <trkpt lat="48.97702" lon="2.03">
        <ele>92.55</ele>
        <time>2021-10-17T11:20:36.000Z</time>
      </trkpt>
      <trkpt lat="48.97712" lon="2.03025">
        <ele>92.55</ele>
        <time>2021-10-17T11:20:54.000Z</time>
      </trkpt>
      <trkpt lat="48.97725" lon="2.03044">
        <ele>92.66</ele>
        <time>2021-10-17T11:21:24.000Z</time>
      </trkpt>
      <trkpt lat="48.97735" lon="2.03069">
        <ele>95.32</ele>
        <time>2021-10-17T11:21:37.000Z</time>
      </trkpt>
      <trkpt lat="48.97745" lon="2.03091">
        <ele>98.04</ele>
        <time>2021-10-17T11:22:14.000Z</time>
      </trkpt>
      <trkpt lat="48.97763" lon="2.03084">
        <ele>100.33</ele>
        <time>2021-10-17T11:22:56.000Z</time>
      </trkpt>
      <trkpt lat="48.97781" lon="2.03079">
        <ele>101.07</ele>
        <time>2021-10-17T11:23:10.000Z</time>
      </trkpt>
      <trkpt lat="48.97799" lon="2.03072">
        <ele>101.55</ele>
        <time>2021-10-17T11:23:23.000Z</time>
      </trkpt>
      <trkpt lat="48.97819" lon="2.0307">
        <ele>101.56</ele>
        <time>2021-10-17T11:23:31.000Z</time>
      </trkpt>
      <trkpt lat="48.97837" lon="2.03067">
        <ele>99.29</ele>
        <time>2021-10-17T11:23:53.000Z</time>
      </trkpt>
      <trkpt lat="48.97854" lon="2.03054">
        <ele>100.23</ele>
        <time>2021-10-17T11:24:18.000Z</time>
      </trkpt>
      <trkpt lat="48.97871" lon="2.03046">
        <ele>100.4</ele>
        <time>2021-10-17T11:24:51.000Z</time>
      </trkpt>
      <trkpt lat="48.97889" lon="2.03043">
        <ele>99.44</ele>
        <time>2021-10-17T11:25:10.000Z</time>
      </trkpt>
      <trkpt lat="48.97907" lon="2.03049">
        <ele>99.28</ele>
        <time>2021-10-17T11:25:47.000Z</time>
      </trkpt>
      <trkpt lat="48.97925" lon="2.03054">
        <ele>101.39</ele>
        <time>2021-10-17T11:26:02.000Z</time>
      </trkpt>
      <trkpt lat="48.97944" lon="2.03052">
        <ele>102.48</ele>
        <time>2021-10-17T11:26:28.999Z</time>
      </trkpt>
      <trkpt lat="48.97962" lon="2.03045">
        <ele>101.62</ele>
        <time>2021-10-17T11:26:44.999Z</time>
      </trkpt>
      <trkpt lat="48.97981" lon="2.03039">
        <ele>99.47</ele>
        <time>2021-10-17T11:27:05.999Z</time>
      </trkpt>
      <trkpt lat="48.97997" lon="2.03026">
        <ele>98.22</ele>
        <time>2021-10-17T11:27:21.999Z</time>
      </trkpt>
      <trkpt lat="48.98016" lon="2.03018">
        <ele>99.02</ele>
        <time>2021-10-17T11:27:34.999Z</time>
      </trkpt>
      <trkpt lat="48.98034" lon="2.03011">
        <ele>100.55</ele>
        <time>2021-10-17T11:27:48.999Z</time>
      </trkpt>
      <trkpt lat="48.98051" lon="2.03003">
        <ele>102.24</ele>
        <time>2021-10-17T11:28:07.999Z</time>
      </trkpt>
      <trkpt lat="48.98066" lon="2.02987">
        <ele>105.49</ele>
        <time>2021-10-17T11:28:49.999Z</time>
      </trkpt>
      <trkpt lat="48.98083" lon="2.02974">
        <ele>105.46</ele>
        <time>2021-10-17T11:29:11.999Z</time>
      </trkpt>
      <trkpt lat="48.98099" lon="2.02962">
        <ele>104.96</ele>
        <time>2021-10-17T11:29:28.999Z</time>
      </trkpt>
      <trkpt lat="48.98117" lon="2.02954">
        <ele>105.55</ele>
        <time>2021-10-17T11:29:57.999Z</time>
      </trkpt>
      <trkpt lat="48.98135" lon="2.02951">
        <ele>106.96</ele>
        <time>2021-10-17T11:30:13.999Z</time>
      </trkpt>
      <trkpt lat="48.98151" lon="2.02935">
        <ele>108.22</ele>
        <time>2021-10-17T11:30:33.999Z</time>
      </trkpt>
      <trkpt lat="48.98168" lon="2.02924">
        <ele>109.82</ele>
        <time>2021-10-17T11:30:50.999Z</time>
      </trkpt>
      <trkpt lat="48.98185" lon="2.02937">
        <ele>111.42</ele>
        <time>2021-10-17T11:31:02.999Z</time>
      </trkpt>
      <trkpt lat="48.98191" lon="2.02964">
        <ele>113.84</ele>
        <time>2021-10-17T11:31:21.999Z</time>
      </trkpt>
      <trkpt lat="48.98193" lon="2.02993">
        <ele>115.63</ele>
        <time>2021-10-17T11:31:34.999Z</time>
      </trkpt>
      <trkpt lat="48.98194" lon="2.03022">
        <ele>117.97</ele>
        <time>2021-10-17T11:31:47.999Z</time>
      </trkpt>
      <trkpt lat="48.98195" lon="2.0305">
        <ele>119.97</ele>
        <time>2021-10-17T11:32:02.999Z</time>
      </trkpt>
      <trkpt lat="48.98192" lon="2.03079">
        <ele>122.11</ele>
        <time>2021-10-17T11:32:19.999Z</time>
      </trkpt>
      <trkpt lat="48.98195" lon="2.03107">
        <ele>123.53</ele>
        <time>2021-10-17T11:32:37.999Z</time>
      </trkpt>
      <trkpt lat="48.98213" lon="2.0311">
        <ele>125</ele>
        <time>2021-10-17T11:35:21.999Z</time>
      </trkpt>
      <trkpt lat="48.98231" lon="2.03106">
        <ele>125.29</ele>
        <time>2021-10-17T11:35:43.999Z</time>
      </trkpt>
      <trkpt lat="48.9825" lon="2.031">
        <ele>120.38</ele>
        <time>2021-10-17T11:36:38.999Z</time>
      </trkpt>
      <trkpt lat="48.98269" lon="2.03094">
        <ele>123.47</ele>
        <time>2021-10-17T11:36:59.999Z</time>
      </trkpt>
      <trkpt lat="48.98287" lon="2.03103">
        <ele>130.5</ele>
        <time>2021-10-17T11:37:25.999Z</time>
      </trkpt>
      <trkpt lat="48.98304" lon="2.03111">
        <ele>143.29</ele>
        <time>2021-10-17T11:38:07.000Z</time>
      </trkpt>
      <trkpt lat="48.98321" lon="2.03099">
        <ele>153.54</ele>
        <time>2021-10-17T11:38:45.000Z</time>
      </trkpt>
      <trkpt lat="48.98338" lon="2.03087">
        <ele>161.5</ele>
        <time>2021-10-17T11:39:29.000Z</time>
      </trkpt>
      <trkpt lat="48.98348" lon="2.0311">
        <ele>169.77</ele>
        <time>2021-10-17T11:48:01.000Z</time>
      </trkpt>
      <trkpt lat="48.98347" lon="2.03082">
        <ele>176</ele>
        <time>2021-10-17T11:50:47.999Z</time>
      </trkpt>
      <trkpt lat="48.98363" lon="2.03097">
        <ele>173.35</ele>
        <time>2021-10-17T11:52:54.999Z</time>
      </trkpt>
      <trkpt lat="48.98377" lon="2.03117">
        <ele>172.84</ele>
        <time>2021-10-17T11:53:14.999Z</time>
      </trkpt>
      <trkpt lat="48.98383" lon="2.03143">
        <ele>168.83</ele>
        <time>2021-10-17T11:53:43.999Z</time>
      </trkpt>
      <trkpt lat="48.9839" lon="2.03168">
        <ele>163.28</ele>
        <time>2021-10-17T11:53:58.999Z</time>
      </trkpt>
      <trkpt lat="48.98398" lon="2.03193">
        <ele>158.25</ele>
        <time>2021-10-17T11:54:13.999Z</time>
      </trkpt>
      <trkpt lat="48.98402" lon="2.03222">
        <ele>152.89</ele>
        <time>2021-10-17T11:54:30.999Z</time>
      </trkpt>
      <trkpt lat="48.98407" lon="2.03251">
        <ele>151.3</ele>
        <time>2021-10-17T11:54:42.999Z</time>
      </trkpt>
      <trkpt lat="48.98402" lon="2.0328">
        <ele>150.14</ele>
        <time>2021-10-17T11:54:54.999Z</time>
      </trkpt>
      <trkpt lat="48.98392" lon="2.03305">
        <ele>151.52</ele>
        <time>2021-10-17T11:55:22.999Z</time>
      </trkpt>
      <trkpt lat="48.98392" lon="2.03333">
        <ele>162.66</ele>
        <time>2021-10-17T11:56:05.999Z</time>
      </trkpt>
      <trkpt lat="48.98393" lon="2.03364">
        <ele>163.4</ele>
        <time>2021-10-17T11:56:19.999Z</time>
      </trkpt>
      <trkpt lat="48.98395" lon="2.03391">
        <ele>165.41</ele>
        <time>2021-10-17T11:56:34.999Z</time>
      </trkpt>
      <trkpt lat="48.984" lon="2.03418">
        <ele>168.4</ele>
        <time>2021-10-17T11:56:53.999Z</time>
      </trkpt>
      <trkpt lat="48.98402" lon="2.03448">
        <ele>169.83</ele>
        <time>2021-10-17T11:57:10.999Z</time>
      </trkpt>
      <trkpt lat="48.98407" lon="2.03475">
        <ele>170.2</ele>
        <time>2021-10-17T11:57:25.999Z</time>
      </trkpt>
      <trkpt lat="48.98412" lon="2.03502">
        <ele>169.8</ele>
        <time>2021-10-17T11:57:39.999Z</time>
      </trkpt>
      <trkpt lat="48.98421" lon="2.03526">
        <ele>168.66</ele>
        <time>2021-10-17T11:57:52.999Z</time>
      </trkpt>
      <trkpt lat="48.9842" lon="2.03555">
        <ele>164.34</ele>
        <time>2021-10-17T11:58:19.999Z</time>
      </trkpt>
      <trkpt lat="48.98424" lon="2.03582">
        <ele>163.09</ele>
        <time>2021-10-17T11:58:27.999Z</time>
      </trkpt>
      <trkpt lat="48.98422" lon="2.03611">
        <ele>162.62</ele>
        <time>2021-10-17T11:58:38.999Z</time>
      </trkpt>
      <trkpt lat="48.98421" lon="2.03638">
        <ele>162.12</ele>
        <time>2021-10-17T11:58:49.999Z</time>
      </trkpt>
      <trkpt lat="48.98422" lon="2.03667">
        <ele>162.37</ele>
        <time>2021-10-17T11:58:59.999Z</time>
      </trkpt>
      <trkpt lat="48.98423" lon="2.03694">
        <ele>164.9</ele>
        <time>2021-10-17T11:59:17.999Z</time>
      </trkpt>
      <trkpt lat="48.98423" lon="2.03723">
        <ele>166.74</ele>
        <time>2021-10-17T11:59:35.999Z</time>
      </trkpt>
      <trkpt lat="48.9842" lon="2.03752">
        <ele>180.11</ele>
        <time>2021-10-17T12:01:31.000Z</time>
      </trkpt>
      <trkpt lat="48.98418" lon="2.03784">
        <ele>179.27</ele>
        <time>2021-10-17T12:01:43.000Z</time>
      </trkpt>
      <trkpt lat="48.98425" lon="2.0381">
        <ele>176.41</ele>
        <time>2021-10-17T12:02:03.000Z</time>
      </trkpt>
      <trkpt lat="48.98425" lon="2.03841">
        <ele>174.53</ele>
        <time>2021-10-17T12:02:14.000Z</time>
      </trkpt>
      <trkpt lat="48.98428" lon="2.03869">
        <ele>169.38</ele>
        <time>2021-10-17T12:02:35.000Z</time>
      </trkpt>
      <trkpt lat="48.98424" lon="2.03897">
        <ele>166.88</ele>
        <time>2021-10-17T12:02:45.000Z</time>
      </trkpt>
      <trkpt lat="48.9843" lon="2.03924">
        <ele>160.96</ele>
        <time>2021-10-17T12:03:04.000Z</time>
      </trkpt>
      <trkpt lat="48.98431" lon="2.03952">
        <ele>158.77</ele>
        <time>2021-10-17T12:03:14.000Z</time>
      </trkpt>
      <trkpt lat="48.98435" lon="2.03979">
        <ele>157.15</ele>
        <time>2021-10-17T12:03:33.000Z</time>
      </trkpt>
      <trkpt lat="48.98435" lon="2.04007">
        <ele>157.86</ele>
        <time>2021-10-17T12:03:45.000Z</time>
      </trkpt>
      <trkpt lat="48.98435" lon="2.04035">
        <ele>159.15</ele>
        <time>2021-10-17T12:03:56.000Z</time>
      </trkpt>
      <trkpt lat="48.98441" lon="2.04061">
        <ele>161.09</ele>
        <time>2021-10-17T12:04:10.000Z</time>
      </trkpt>
      <trkpt lat="48.98446" lon="2.04089">
        <ele>161</ele>
        <time>2021-10-17T12:04:27.000Z</time>
      </trkpt>
      <trkpt lat="48.98445" lon="2.04117">
        <ele>160.44</ele>
        <time>2021-10-17T12:04:38.000Z</time>
      </trkpt>
      <trkpt lat="48.98438" lon="2.04143">
        <ele>158.54</ele>
        <time>2021-10-17T12:04:55.000Z</time>
      </trkpt>
      <trkpt lat="48.98443" lon="2.04174">
        <ele>148.42</ele>
        <time>2021-10-17T12:05:24.000Z</time>
      </trkpt>
      <trkpt lat="48.9845" lon="2.04199">
        <ele>142.22</ele>
        <time>2021-10-17T12:05:39.000Z</time>
      </trkpt>
      <trkpt lat="48.98456" lon="2.04227">
        <ele>138</ele>
        <time>2021-10-17T12:05:54.000Z</time>
      </trkpt>
      <trkpt lat="48.98458" lon="2.04256">
        <ele>131.69</ele>
        <time>2021-10-17T12:06:15.000Z</time>
      </trkpt>
      <trkpt lat="48.98462" lon="2.04286">
        <ele>129.37</ele>
        <time>2021-10-17T12:06:24.000Z</time>
      </trkpt>
      <trkpt lat="48.98465" lon="2.04315">
        <ele>128.03</ele>
        <time>2021-10-17T12:06:31.000Z</time>
      </trkpt>
      <trkpt lat="48.9845" lon="2.04332">
        <ele>123.95</ele>
        <time>2021-10-17T12:06:57.000Z</time>
      </trkpt>
      <trkpt lat="48.98443" lon="2.04359">
        <ele>124.18</ele>
        <time>2021-10-17T12:07:05.000Z</time>
      </trkpt>
      <trkpt lat="48.9843" lon="2.04386">
        <ele>126.95</ele>
        <time>2021-10-17T12:07:15.000Z</time>
      </trkpt>
      <trkpt lat="48.98422" lon="2.04412">
        <ele>132.11</ele>
        <time>2021-10-17T12:07:30.000Z</time>
      </trkpt>
      <trkpt lat="48.9841" lon="2.04434">
        <ele>135.59</ele>
        <time>2021-10-17T12:07:49.000Z</time>
      </trkpt>
      <trkpt lat="48.98399" lon="2.04457">
        <ele>137.97</ele>
        <time>2021-10-17T12:08:01.000Z</time>
      </trkpt>
      <trkpt lat="48.98387" lon="2.0448">
        <ele>141.35</ele>
        <time>2021-10-17T12:08:11.000Z</time>
      </trkpt>
      <trkpt lat="48.98377" lon="2.04503">
        <ele>147.56</ele>
        <time>2021-10-17T12:08:35.000Z</time>
      </trkpt>
      <trkpt lat="48.9837" lon="2.04531">
        <ele>147.67</ele>
        <time>2021-10-17T12:08:48.000Z</time>
      </trkpt>
      <trkpt lat="48.98358" lon="2.04552">
        <ele>142.8</ele>
        <time>2021-10-17T12:09:09.000Z</time>
      </trkpt>
      <trkpt lat="48.98352" lon="2.04581">
        <ele>137.65</ele>
        <time>2021-10-17T12:09:26.000Z</time>
      </trkpt>
      <trkpt lat="48.98345" lon="2.04607">
        <ele>135.86</ele>
        <time>2021-10-17T12:09:42.000Z</time>
      </trkpt>
      <trkpt lat="48.98341" lon="2.04634">
        <ele>135.78</ele>
        <time>2021-10-17T12:09:55.000Z</time>
      </trkpt>
      <trkpt lat="48.98337" lon="2.04661">
        <ele>136.88</ele>
        <time>2021-10-17T12:10:10.000Z</time>
      </trkpt>
      <trkpt lat="48.98336" lon="2.04688">
        <ele>138.14</ele>
        <time>2021-10-17T12:10:26.000Z</time>
      </trkpt>
      <trkpt lat="48.98338" lon="2.04716">
        <ele>139.05</ele>
        <time>2021-10-17T12:12:04.000Z</time>
      </trkpt>
      <trkpt lat="48.98332" lon="2.04744">
        <ele>137.26</ele>
        <time>2021-10-17T12:12:31.999Z</time>
      </trkpt>
      <trkpt lat="48.98317" lon="2.04763">
        <ele>134.81</ele>
        <time>2021-10-17T12:12:53.999Z</time>
      </trkpt>
      <trkpt lat="48.98301" lon="2.04777">
        <ele>132.18</ele>
        <time>2021-10-17T12:13:31.999Z</time>
      </trkpt>
      <trkpt lat="48.98296" lon="2.04805">
        <ele>130.48</ele>
        <time>2021-10-17T12:13:51.999Z</time>
      </trkpt>
      <trkpt lat="48.98292" lon="2.04833">
        <ele>129.24</ele>
        <time>2021-10-17T12:14:10.999Z</time>
      </trkpt>
      <trkpt lat="48.9829" lon="2.04862">
        <ele>127.78</ele>
        <time>2021-10-17T12:14:34.999Z</time>
      </trkpt>
      <trkpt lat="48.98286" lon="2.04889">
        <ele>127</ele>
        <time>2021-10-17T12:14:54.999Z</time>
      </trkpt>
      <trkpt lat="48.98281" lon="2.04916">
        <ele>126.63</ele>
        <time>2021-10-17T12:15:11.999Z</time>
      </trkpt>
      <trkpt lat="48.98273" lon="2.04942">
        <ele>126.3</ele>
        <time>2021-10-17T12:15:28.999Z</time>
      </trkpt>
      <trkpt lat="48.98261" lon="2.04963">
        <ele>126.03</ele>
        <time>2021-10-17T12:15:47.999Z</time>
      </trkpt>
      <trkpt lat="48.98248" lon="2.04984">
        <ele>124.24</ele>
        <time>2021-10-17T12:16:08.999Z</time>
      </trkpt>
      <trkpt lat="48.98236" lon="2.05005">
        <ele>122.92</ele>
        <time>2021-10-17T12:16:23.999Z</time>
      </trkpt>
      <trkpt lat="48.98226" lon="2.05029">
        <ele>121.54</ele>
        <time>2021-10-17T12:17:00.999Z</time>
      </trkpt>
      <trkpt lat="48.98219" lon="2.05056">
        <ele>118.32</ele>
        <time>2021-10-17T12:17:22.999Z</time>
      </trkpt>
      <trkpt lat="48.98213" lon="2.05082">
        <ele>114.83</ele>
        <time>2021-10-17T12:17:42.999Z</time>
      </trkpt>
      <trkpt lat="48.98207" lon="2.05111">
        <ele>110.59</ele>
        <time>2021-10-17T12:18:03.999Z</time>
      </trkpt>
      <trkpt lat="48.982" lon="2.05138">
        <ele>107.77</ele>
        <time>2021-10-17T12:18:17.999Z</time>
      </trkpt>
      <trkpt lat="48.98196" lon="2.05165">
        <ele>107.12</ele>
        <time>2021-10-17T12:18:33.999Z</time>
      </trkpt>
      <trkpt lat="48.98191" lon="2.05192">
        <ele>107.36</ele>
        <time>2021-10-17T12:18:50.999Z</time>
      </trkpt>
      <trkpt lat="48.98194" lon="2.05199">
        <ele>102</ele>
        <time>2021-10-17T12:21:31.999Z</time>
      </trkpt>
      <trkpt lat="48.98182" lon="2.05223">
        <ele>102.74</ele>
        <time>2021-10-17T12:22:11.999Z</time>
      </trkpt>
      <trkpt lat="48.9817" lon="2.05245">
        <ele>100.45</ele>
        <time>2021-10-17T12:22:24.999Z</time>
      </trkpt>
      <trkpt lat="48.98153" lon="2.05257">
        <ele>99.97</ele>
        <time>2021-10-17T12:23:21.999Z</time>
      </trkpt>
      <trkpt lat="48.98141" lon="2.05278">
        <ele>97.47</ele>
        <time>2021-10-17T12:23:36.999Z</time>
      </trkpt>
      <trkpt lat="48.9813" lon="2.05301">
        <ele>95.32</ele>
        <time>2021-10-17T12:23:54.000Z</time>
      </trkpt>
      <trkpt lat="48.98119" lon="2.05323">
        <ele>94.33</ele>
        <time>2021-10-17T12:24:05.000Z</time>
      </trkpt>
      <trkpt lat="48.98107" lon="2.05345">
        <ele>91.49</ele>
        <time>2021-10-17T12:24:23.000Z</time>
      </trkpt>
      <trkpt lat="48.98096" lon="2.05369">
        <ele>88.09</ele>
        <time>2021-10-17T12:24:41.000Z</time>
      </trkpt>
      <trkpt lat="48.98087" lon="2.05393">
        <ele>86.71</ele>
        <time>2021-10-17T12:25:59.000Z</time>
      </trkpt>
      <trkpt lat="48.98076" lon="2.05416">
        <ele>86.65</ele>
        <time>2021-10-17T12:26:33.000Z</time>
      </trkpt>
      <trkpt lat="48.98067" lon="2.0544">
        <ele>85.03</ele>
        <time>2021-10-17T12:26:51.000Z</time>
      </trkpt>
      <trkpt lat="48.9806" lon="2.05466">
        <ele>83.67</ele>
        <time>2021-10-17T12:27:08.000Z</time>
      </trkpt>
      <trkpt lat="48.98053" lon="2.05491">
        <ele>82.61</ele>
        <time>2021-10-17T12:27:27.000Z</time>
      </trkpt>
      <trkpt lat="48.98043" lon="2.05516">
        <ele>78.48</ele>
        <time>2021-10-17T12:27:47.000Z</time>
      </trkpt>
      <trkpt lat="48.98032" lon="2.05538">
        <ele>75.24</ele>
        <time>2021-10-17T12:28:33.000Z</time>
      </trkpt>
      <trkpt lat="48.98015" lon="2.05527">
        <ele>71.73</ele>
        <time>2021-10-17T12:29:33.000Z</time>
      </trkpt>
      <trkpt lat="48.98002" lon="2.05507">
        <ele>70.18</ele>
        <time>2021-10-17T12:29:48.000Z</time>
      </trkpt>
      <trkpt lat="48.97988" lon="2.05487">
        <ele>68.23</ele>
        <time>2021-10-17T12:30:10.000Z</time>
      </trkpt>
      <trkpt lat="48.97975" lon="2.05507">
        <ele>68.25</ele>
        <time>2021-10-17T12:30:29.000Z</time>
      </trkpt>
      <trkpt lat="48.97964" lon="2.0553">
        <ele>68.72</ele>
        <time>2021-10-17T12:30:43.000Z</time>
      </trkpt>
      <trkpt lat="48.97954" lon="2.05553">
        <ele>67.87</ele>
        <time>2021-10-17T12:31:04.000Z</time>
      </trkpt>
      <trkpt lat="48.97952" lon="2.0558">
        <ele>62.35</ele>
        <time>2021-10-17T12:32:22.000Z</time>
      </trkpt>
      <trkpt lat="48.97967" lon="2.05597">
        <ele>59.67</ele>
        <time>2021-10-17T12:32:39.000Z</time>
      </trkpt>
      <trkpt lat="48.97984" lon="2.05611">
        <ele>56.27</ele>
        <time>2021-10-17T12:32:58.000Z</time>
      </trkpt>
      <trkpt lat="48.98001" lon="2.05623">
        <ele>54.02</ele>
        <time>2021-10-17T12:33:13.000Z</time>
      </trkpt>
      <trkpt lat="48.98018" lon="2.05631">
        <ele>52.29</ele>
        <time>2021-10-17T12:33:28.000Z</time>
      </trkpt>
      <trkpt lat="48.9803" lon="2.05652">
        <ele>55</ele>
        <time>2021-10-17T12:41:06.999Z</time>
      </trkpt>
      <trkpt lat="48.9804" lon="2.05675">
        <ele>53.82</ele>
        <time>2021-10-17T12:41:23.999Z</time>
      </trkpt>
      <trkpt lat="48.98037" lon="2.05703">
        <ele>53.24</ele>
        <time>2021-10-17T12:41:46.999Z</time>
      </trkpt>
      <trkpt lat="48.98044" lon="2.05677">
        <ele>52.47</ele>
        <time>2021-10-17T12:42:29.999Z</time>
      </trkpt>
      <trkpt lat="48.98038" lon="2.0565">
        <ele>53.87</ele>
        <time>2021-10-17T12:42:47.999Z</time>
      </trkpt>
      <trkpt lat="48.98056" lon="2.05656">
        <ele>56.36</ele>
        <time>2021-10-17T12:43:35.999Z</time>
      </trkpt>
      <trkpt lat="48.98075" lon="2.05664">
        <ele>55.42</ele>
        <time>2021-10-17T12:43:49.999Z</time>
      </trkpt>
      <trkpt lat="48.9809" lon="2.0568">
        <ele>54.71</ele>
        <time>2021-10-17T12:44:02.999Z</time>
      </trkpt>
      <trkpt lat="48.98106" lon="2.05695">
        <ele>57.86</ele>
        <time>2021-10-17T12:44:26.999Z</time>
      </trkpt>
      <trkpt lat="48.98123" lon="2.05709">
        <ele>59.64</ele>
        <time>2021-10-17T12:44:40.999Z</time>
      </trkpt>
      <trkpt lat="48.98141" lon="2.05714">
        <ele>60.17</ele>
        <time>2021-10-17T12:44:59.999Z</time>
      </trkpt>
      <trkpt lat="48.98158" lon="2.05729">
        <ele>60.29</ele>
        <time>2021-10-17T12:45:11.999Z</time>
      </trkpt>
      <trkpt lat="48.98174" lon="2.05744">
        <ele>59.75</ele>
        <time>2021-10-17T12:45:28.999Z</time>
      </trkpt>
      <trkpt lat="48.9819" lon="2.05755">
        <ele>61.05</ele>
        <time>2021-10-17T12:45:45.999Z</time>
      </trkpt>
      <trkpt lat="48.98207" lon="2.0577">
        <ele>61.95</ele>
        <time>2021-10-17T12:45:59.999Z</time>
      </trkpt>
      <trkpt lat="48.98198" lon="2.05795">
        <ele>61.18</ele>
        <time>2021-10-17T12:47:05.000Z</time>
      </trkpt>
      <trkpt lat="48.98181" lon="2.05809">
        <ele>67.77</ele>
        <time>2021-10-17T12:50:25.000Z</time>
      </trkpt>
      <trkpt lat="48.98199" lon="2.05811">
        <ele>67.89</ele>
        <time>2021-10-17T12:50:41.000Z</time>
      </trkpt>
      <trkpt lat="48.9821" lon="2.05787">
        <ele>66.36</ele>
        <time>2021-10-17T12:52:00.000Z</time>
      </trkpt>
      <trkpt lat="48.98228" lon="2.05782">
        <ele>63.81</ele>
        <time>2021-10-17T12:53:07.000Z</time>
      </trkpt>
      <trkpt lat="48.98246" lon="2.05792">
        <ele>62.37</ele>
        <time>2021-10-17T12:53:20.000Z</time>
      </trkpt>
      <trkpt lat="48.98234" lon="2.05815">
        <ele>58.04</ele>
        <time>2021-10-17T12:55:11.000Z</time>
      </trkpt>
      <trkpt lat="48.98221" lon="2.05835">
        <ele>58.57</ele>
        <time>2021-10-17T12:55:34.000Z</time>
      </trkpt>
      <trkpt lat="48.98203" lon="2.0584">
        <ele>58.52</ele>
        <time>2021-10-17T12:55:59.000Z</time>
      </trkpt>
      <trkpt lat="48.98186" lon="2.0585">
        <ele>57.44</ele>
        <time>2021-10-17T12:56:22.000Z</time>
      </trkpt>
      <trkpt lat="48.98178" lon="2.05875">
        <ele>55.74</ele>
        <time>2021-10-17T12:57:05.000Z</time>
      </trkpt>
      <trkpt lat="48.9817" lon="2.059">
        <ele>51.89</ele>
        <time>2021-10-17T12:57:30.000Z</time>
      </trkpt>
      <trkpt lat="48.98163" lon="2.05925">
        <ele>50.39</ele>
        <time>2021-10-17T12:57:47.000Z</time>
      </trkpt>
      <trkpt lat="48.98159" lon="2.05954">
        <ele>46.97</ele>
        <time>2021-10-17T12:58:04.999Z</time>
      </trkpt>
      <trkpt lat="48.98161" lon="2.05983">
        <ele>36.91</ele>
        <time>2021-10-17T12:58:49.999Z</time>
      </trkpt>
      <trkpt lat="48.98172" lon="2.06008">
        <ele>31.29</ele>
        <time>2021-10-17T12:59:09.999Z</time>
      </trkpt>
      <trkpt lat="48.98166" lon="2.06034">
        <ele>30.49</ele>
        <time>2021-10-17T12:59:23.999Z</time>
      </trkpt>
      <trkpt lat="48.98158" lon="2.06061">
        <ele>32.77</ele>
        <time>2021-10-17T12:59:37.999Z</time>
      </trkpt>
      <trkpt lat="48.98146" lon="2.06083">
        <ele>33.98</ele>
        <time>2021-10-17T12:59:57.999Z</time>
      </trkpt>
      <trkpt lat="48.9815" lon="2.0611">
        <ele>34.28</ele>
        <time>2021-10-17T13:01:00.999Z</time>
      </trkpt>
      <trkpt lat="48.98166" lon="2.06128">
        <ele>34.42</ele>
        <time>2021-10-17T13:01:14.999Z</time>
      </trkpt>
      <trkpt lat="48.98183" lon="2.0614">
        <ele>35.61</ele>
        <time>2021-10-17T13:01:31.999Z</time>
      </trkpt>
      <trkpt lat="48.982" lon="2.06154">
        <ele>36.79</ele>
        <time>2021-10-17T13:01:49.999Z</time>
      </trkpt>
      <trkpt lat="48.98216" lon="2.06169">
        <ele>36.32</ele>
        <time>2021-10-17T13:02:06.999Z</time>
      </trkpt>
      <trkpt lat="48.98232" lon="2.06184">
        <ele>36.33</ele>
        <time>2021-10-17T13:02:21.999Z</time>
      </trkpt>
      <trkpt lat="48.98248" lon="2.06198">
        <ele>39.93</ele>
        <time>2021-10-17T13:02:39.999Z</time>
      </trkpt>
      <trkpt lat="48.98266" lon="2.06207">
        <ele>42.71</ele>
        <time>2021-10-17T13:03:02.999Z</time>
      </trkpt>
      <trkpt lat="48.98283" lon="2.06217">
        <ele>41.41</ele>
        <time>2021-10-17T13:03:18.999Z</time>
      </trkpt>
      <trkpt lat="48.98298" lon="2.06234">
        <ele>40.42</ele>
        <time>2021-10-17T13:03:35.999Z</time>
      </trkpt>
      <trkpt lat="48.98312" lon="2.06251">
        <ele>38.14</ele>
        <time>2021-10-17T13:04:11.999Z</time>
      </trkpt>
      <trkpt lat="48.98325" lon="2.06273">
        <ele>35.63</ele>
        <time>2021-10-17T13:04:41.999Z</time>
      </trkpt>
      <trkpt lat="48.98338" lon="2.0629">
        <ele>35.75</ele>
        <time>2021-10-17T13:04:59.999Z</time>
      </trkpt>
      <trkpt lat="48.98352" lon="2.0631">
        <ele>34.76</ele>
        <time>2021-10-17T13:05:12.999Z</time>
      </trkpt>
      <trkpt lat="48.98367" lon="2.06328">
        <ele>32.82</ele>
        <time>2021-10-17T13:05:32.999Z</time>
      </trkpt>
      <trkpt lat="48.98379" lon="2.06349">
        <ele>26.21</ele>
        <time>2021-10-17T13:05:56.999Z</time>
      </trkpt>
      <trkpt lat="48.98392" lon="2.06371">
        <ele>24.11</ele>
        <time>2021-10-17T13:06:33.999Z</time>
      </trkpt>
      <trkpt lat="48.98402" lon="2.06395">
        <ele>24.21</ele>
        <time>2021-10-17T13:06:53.999Z</time>
      </trkpt>
      <trkpt lat="48.98415" lon="2.06414">
        <ele>27.22</ele>
        <time>2021-10-17T13:07:23.999Z</time>
      </trkpt>
      <trkpt lat="48.9843" lon="2.0643">
        <ele>28.42</ele>
        <time>2021-10-17T13:07:35.999Z</time>
      </trkpt>
      <trkpt lat="48.98443" lon="2.06449">
        <ele>30.21</ele>
        <time>2021-10-17T13:08:37.999Z</time>
      </trkpt>
      <trkpt lat="48.98457" lon="2.06467">
        <ele>29.25</ele>
        <time>2021-10-17T13:09:18.000Z</time>
      </trkpt>
      <trkpt lat="48.98467" lon="2.0649">
        <ele>29.49</ele>
        <time>2021-10-17T13:09:45.000Z</time>
      </trkpt>
      <trkpt lat="48.98479" lon="2.0651">
        <ele>28.42</ele>
        <time>2021-10-17T13:10:11.000Z</time>
      </trkpt>
      <trkpt lat="48.98486" lon="2.06536">
        <ele>28.49</ele>
        <time>2021-10-17T13:10:30.000Z</time>
      </trkpt>
      <trkpt lat="48.98495" lon="2.0656">
        <ele>27.03</ele>
        <time>2021-10-17T13:10:51.000Z</time>
      </trkpt>
      <trkpt lat="48.98505" lon="2.06584">
        <ele>26.74</ele>
        <time>2021-10-17T13:11:18.000Z</time>
      </trkpt>
      <trkpt lat="48.98513" lon="2.06609">
        <ele>27.33</ele>
        <time>2021-10-17T13:11:36.000Z</time>
      </trkpt>
      <trkpt lat="48.98523" lon="2.06632">
        <ele>28.16</ele>
        <time>2021-10-17T13:11:54.000Z</time>
      </trkpt>
      <trkpt lat="48.98534" lon="2.06655">
        <ele>29.15</ele>
        <time>2021-10-17T13:12:15.000Z</time>
      </trkpt>
      <trkpt lat="48.98546" lon="2.06676">
        <ele>29.68</ele>
        <time>2021-10-17T13:12:37.000Z</time>
      </trkpt>
      <trkpt lat="48.98556" lon="2.067">
        <ele>29.63</ele>
        <time>2021-10-17T13:13:01.000Z</time>
      </trkpt>
      <trkpt lat="48.98563" lon="2.06728">
        <ele>27.17</ele>
        <time>2021-10-17T13:13:15.000Z</time>
      </trkpt>
      <trkpt lat="48.98565" lon="2.06755">
        <ele>27</ele>
        <time>2021-10-17T13:13:31.000Z</time>
      </trkpt>
      <trkpt lat="48.98575" lon="2.06779">
        <ele>28.57</ele>
        <time>2021-10-17T13:13:59.000Z</time>
      </trkpt>
      <trkpt lat="48.98586" lon="2.06804">
        <ele>28.52</ele>
        <time>2021-10-17T13:14:21.000Z</time>
      </trkpt>
      <trkpt lat="48.98591" lon="2.06832">
        <ele>26.26</ele>
        <time>2021-10-17T13:14:42.000Z</time>
      </trkpt>
      <trkpt lat="48.986" lon="2.06859">
        <ele>25.63</ele>
        <time>2021-10-17T13:15:07.000Z</time>
      </trkpt>
      <trkpt lat="48.98612" lon="2.06882">
        <ele>26.28</ele>
        <time>2021-10-17T13:15:26.000Z</time>
      </trkpt>
      <trkpt lat="48.98624" lon="2.06904">
        <ele>29.8</ele>
        <time>2021-10-17T13:15:55.000Z</time>
      </trkpt>
      <trkpt lat="48.98635" lon="2.06927">
        <ele>34.74</ele>
        <time>2021-10-17T13:16:22.000Z</time>
      </trkpt>
      <trkpt lat="48.98652" lon="2.06941">
        <ele>36.01</ele>
        <time>2021-10-17T13:16:36.000Z</time>
      </trkpt>
      <trkpt lat="48.98666" lon="2.06961">
        <ele>36.82</ele>
        <time>2021-10-17T13:16:53.000Z</time>
      </trkpt>
      <trkpt lat="48.98677" lon="2.06985">
        <ele>37.56</ele>
        <time>2021-10-17T13:17:11.000Z</time>
      </trkpt>
      <trkpt lat="48.98688" lon="2.07006">
        <ele>38.37</ele>
        <time>2021-10-17T13:17:32.000Z</time>
      </trkpt>
      <trkpt lat="48.98703" lon="2.07022">
        <ele>37.6</ele>
        <time>2021-10-17T13:17:51.000Z</time>
      </trkpt>
      <trkpt lat="48.98719" lon="2.07036">
        <ele>37.95</ele>
        <time>2021-10-17T13:18:12.000Z</time>
      </trkpt>
      <trkpt lat="48.98735" lon="2.07047">
        <ele>38.15</ele>
        <time>2021-10-17T13:18:41.000Z</time>
      </trkpt>
      <trkpt lat="48.98751" lon="2.07062">
        <ele>36.74</ele>
        <time>2021-10-17T13:19:15.000Z</time>
      </trkpt>
      <trkpt lat="48.98767" lon="2.07074">
        <ele>34.54</ele>
        <time>2021-10-17T13:19:37.000Z</time>
      </trkpt>
      <trkpt lat="48.98786" lon="2.07081">
        <ele>33.46</ele>
        <time>2021-10-17T13:19:51.000Z</time>
      </trkpt>
      <trkpt lat="48.98804" lon="2.07082">
        <ele>31.63</ele>
        <time>2021-10-17T13:20:14.000Z</time>
      </trkpt>
      <trkpt lat="48.98822" lon="2.07087">
        <ele>30.49</ele>
        <time>2021-10-17T13:20:32.999Z</time>
      </trkpt>
      <trkpt lat="48.98841" lon="2.0709">
        <ele>30.83</ele>
        <time>2021-10-17T13:20:52.999Z</time>
      </trkpt>
      <trkpt lat="48.98859" lon="2.07085">
        <ele>32.52</ele>
        <time>2021-10-17T13:22:16.999Z</time>
      </trkpt>
      <trkpt lat="48.98868" lon="2.07061">
        <ele>29.03</ele>
        <time>2021-10-17T13:22:44.999Z</time>
      </trkpt>
      <trkpt lat="48.98877" lon="2.07036">
        <ele>25.37</ele>
        <time>2021-10-17T13:22:59.999Z</time>
      </trkpt>
      <trkpt lat="48.98884" lon="2.0701">
        <ele>21.99</ele>
        <time>2021-10-17T13:23:16.999Z</time>
      </trkpt>
      <trkpt lat="48.98892" lon="2.06984">
        <ele>20.02</ele>
        <time>2021-10-17T13:23:38.999Z</time>
      </trkpt>
      <trkpt lat="48.98899" lon="2.06959">
        <ele>18.94</ele>
        <time>2021-10-17T13:23:57.999Z</time>
      </trkpt>
      <trkpt lat="48.98905" lon="2.06931">
        <ele>19.4</ele>
        <time>2021-10-17T13:24:11.999Z</time>
      </trkpt>
      <trkpt lat="48.98912" lon="2.06905">
        <ele>20.6</ele>
        <time>2021-10-17T13:24:27.999Z</time>
      </trkpt>
      <trkpt lat="48.98918" lon="2.06879">
        <ele>21.09</ele>
        <time>2021-10-17T13:24:43.999Z</time>
      </trkpt>
      <trkpt lat="48.98936" lon="2.06892">
        <ele>22.91</ele>
        <time>2021-10-17T13:25:21.999Z</time>
      </trkpt>
      <trkpt lat="48.98949" lon="2.06911">
        <ele>25.57</ele>
        <time>2021-10-17T13:25:36.999Z</time>
      </trkpt>
      <trkpt lat="48.98963" lon="2.06931">
        <ele>28.01</ele>
        <time>2021-10-17T13:25:53.999Z</time>
      </trkpt>
      <trkpt lat="48.98975" lon="2.06953">
        <ele>30.43</ele>
        <time>2021-10-17T13:26:09.999Z</time>
      </trkpt>
      <trkpt lat="48.98987" lon="2.06974">
        <ele>33.1</ele>
        <time>2021-10-17T13:26:31.999Z</time>
      </trkpt>
      <trkpt lat="48.98975" lon="2.06998">
        <ele>35.43</ele>
        <time>2021-10-17T13:26:58.999Z</time>
      </trkpt>
      <trkpt lat="48.98966" lon="2.07022">
        <ele>36.21</ele>
        <time>2021-10-17T13:27:13.999Z</time>
      </trkpt>
      <trkpt lat="48.98957" lon="2.07047">
        <ele>37.61</ele>
        <time>2021-10-17T13:27:30.999Z</time>
      </trkpt>
      <trkpt lat="48.98948" lon="2.0707">
        <ele>39.14</ele>
        <time>2021-10-17T13:27:42.999Z</time>
      </trkpt>
      <trkpt lat="48.98939" lon="2.07094">
        <ele>41</ele>
        <time>2021-10-17T13:27:58.999Z</time>
      </trkpt>
      <trkpt lat="48.9893" lon="2.07119">
        <ele>41.83</ele>
        <time>2021-10-17T13:28:12.999Z</time>
      </trkpt>
      <trkpt lat="48.98921" lon="2.07143">
        <ele>44.18</ele>
        <time>2021-10-17T13:28:33.999Z</time>
      </trkpt>
      <trkpt lat="48.98912" lon="2.07167">
        <ele>46.65</ele>
        <time>2021-10-17T13:28:54.999Z</time>
      </trkpt>
      <trkpt lat="48.98904" lon="2.07193">
        <ele>48.14</ele>
        <time>2021-10-17T13:29:09.999Z</time>
      </trkpt>
      <trkpt lat="48.98894" lon="2.07219">
        <ele>48.3</ele>
        <time>2021-10-17T13:29:24.999Z</time>
      </trkpt>
      <trkpt lat="48.98884" lon="2.07246">
        <ele>47.12</ele>
        <time>2021-10-17T13:29:42.999Z</time>
      </trkpt>
      <trkpt lat="48.98875" lon="2.07271">
        <ele>45.37</ele>
        <time>2021-10-17T13:30:01.999Z</time>
      </trkpt>
      <trkpt lat="48.98868" lon="2.07296">
        <ele>44.92</ele>
        <time>2021-10-17T13:30:12.999Z</time>
      </trkpt>
      <trkpt lat="48.9886" lon="2.07322">
        <ele>45.44</ele>
        <time>2021-10-17T13:30:29.999Z</time>
      </trkpt>
      <trkpt lat="48.98871" lon="2.073">
        <ele>39.89</ele>
        <time>2021-10-17T13:30:54.999Z</time>
      </trkpt>
      <trkpt lat="48.98867" lon="2.07331">
        <ele>51.1</ele>
        <time>2021-10-17T13:32:08.000Z</time>
      </trkpt>
      <trkpt lat="48.98872" lon="2.07359">
        <ele>52.65</ele>
        <time>2021-10-17T13:32:22.000Z</time>
      </trkpt>
      <trkpt lat="48.98879" lon="2.07385">
        <ele>50.78</ele>
        <time>2021-10-17T13:32:37.000Z</time>
      </trkpt>
      <trkpt lat="48.98892" lon="2.07404">
        <ele>49.06</ele>
        <time>2021-10-17T13:33:01.000Z</time>
      </trkpt>
      <trkpt lat="48.98903" lon="2.07427">
        <ele>48.33</ele>
        <time>2021-10-17T13:33:30.000Z</time>
      </trkpt>
    </trkseg>
  </trk>
</gpx>